<?xml version="1.0" encoding="UTF-8"?><gpx creator="Wikiloc - http://www.wikiloc.com" version="1.1" xmlns="http://www.topografix.com/GPX/1/1" xmlns:xsi="http://www.w3.org/2001/XMLSchema-instance" xsi:schemaLocation="http://www.topografix.com/GPX/1/1 http://www.topografix.com/GPX/1/1/gpx.xsd"><wpt lat="40.085609" lon="-5.881570"><ele>0.0</ele><time>2015-09-28T18:01:46Z</time><name>Barrado</name><cmt></cmt><desc></desc></wpt><wpt lat="40.087401" lon="-5.921460"><ele>0.0</ele><time>2015-09-28T18:02:20Z</time><name>Roble de la Solana</name><cmt></cmt><desc></desc></wpt><wpt lat="40.088885" lon="-5.910851"><ele>0.0</ele><time>2015-09-28T18:03:57Z</time><name>Vistas</name><cmt></cmt><desc></desc></wpt><wpt lat="40.091920" lon="-5.883126"><ele>0.0</ele><time>2015-09-28T18:04:30Z</time><name>Garganta del Obispo</name><cmt></cmt><desc></desc></wpt><trk><name>PR-CC 18 Robledal de la Solana (Barrado)</name><cmt></cmt><desc></desc><trkseg><trkpt lat="40.085655" lon="-5.881635"><ele>782.2</ele><time>2015-07-07T05:01:51Z</time></trkpt><trkpt lat="40.085730" lon="-5.881661"><ele>780.9</ele><time>2015-07-07T05:02:12Z</time></trkpt><trkpt lat="40.085754" lon="-5.881809"><ele>775.0</ele><time>2015-07-07T05:02:33Z</time></trkpt><trkpt lat="40.085825" lon="-5.881824"><ele>773.8</ele><time>2015-07-07T05:02:54Z</time></trkpt><trkpt lat="40.086028" lon="-5.881832"><ele>776.2</ele><time>2015-07-07T05:03:15Z</time></trkpt><trkpt lat="40.086203" lon="-5.881851"><ele>777.9</ele><time>2015-07-07T05:03:36Z</time></trkpt><trkpt lat="40.086337" lon="-5.881910"><ele>777.8</ele><time>2015-07-07T05:03:57Z</time></trkpt><trkpt lat="40.086423" lon="-5.882066"><ele>774.0</ele><time>2015-07-07T05:04:18Z</time></trkpt><trkpt lat="40.086460" lon="-5.882226"><ele>769.4</ele><time>2015-07-07T05:04:39Z</time></trkpt><trkpt lat="40.086478" lon="-5.882402"><ele>764.1</ele><time>2015-07-07T05:05:00Z</time></trkpt><trkpt lat="40.086665" lon="-5.882639"><ele>759.8</ele><time>2015-07-07T05:05:21Z</time></trkpt><trkpt lat="40.086882" lon="-5.882807"><ele>755.9</ele><time>2015-07-07T05:05:42Z</time></trkpt><trkpt lat="40.087041" lon="-5.882925"><ele>753.0</ele><time>2015-07-07T05:06:03Z</time></trkpt><trkpt lat="40.087138" lon="-5.883028"><ele>749.9</ele><time>2015-07-07T05:06:24Z</time></trkpt><trkpt lat="40.087344" lon="-5.883066"><ele>750.4</ele><time>2015-07-07T05:06:45Z</time></trkpt><trkpt lat="40.087506" lon="-5.883073"><ele>751.6</ele><time>2015-07-07T05:07:06Z</time></trkpt><trkpt lat="40.087676" lon="-5.883122"><ele>748.7</ele><time>2015-07-07T05:07:27Z</time></trkpt><trkpt lat="40.087957" lon="-5.883204"><ele>743.7</ele><time>2015-07-07T05:07:48Z</time></trkpt><trkpt lat="40.088216" lon="-5.883297"><ele>738.3</ele><time>2015-07-07T05:08:09Z</time></trkpt><trkpt lat="40.088413" lon="-5.883375"><ele>733.3</ele><time>2015-07-07T05:08:30Z</time></trkpt><trkpt lat="40.088619" lon="-5.883419"><ele>729.0</ele><time>2015-07-07T05:08:51Z</time></trkpt><trkpt lat="40.088763" lon="-5.883425"><ele>727.1</ele><time>2015-07-07T05:09:12Z</time></trkpt><trkpt lat="40.088784" lon="-5.883462"><ele>725.4</ele><time>2015-07-07T05:09:33Z</time></trkpt><trkpt lat="40.088693" lon="-5.883522"><ele>724.0</ele><time>2015-07-07T05:09:54Z</time></trkpt><trkpt lat="40.088602" lon="-5.883553"><ele>723.7</ele><time>2015-07-07T05:10:15Z</time></trkpt><trkpt lat="40.088669" lon="-5.883574"><ele>722.1</ele><time>2015-07-07T05:10:36Z</time></trkpt><trkpt lat="40.088908" lon="-5.883566"><ele>719.7</ele><time>2015-07-07T05:10:57Z</time></trkpt><trkpt lat="40.089142" lon="-5.883553"><ele>717.6</ele><time>2015-07-07T05:11:18Z</time></trkpt><trkpt lat="40.089346" lon="-5.883503"><ele>716.2</ele><time>2015-07-07T05:11:39Z</time></trkpt><trkpt lat="40.089585" lon="-5.883319"><ele>718.0</ele><time>2015-07-07T05:12:00Z</time></trkpt><trkpt lat="40.089870" lon="-5.883079"><ele>720.3</ele><time>2015-07-07T05:12:21Z</time></trkpt><trkpt lat="40.090070" lon="-5.882836"><ele>723.1</ele><time>2015-07-07T05:12:42Z</time></trkpt><trkpt lat="40.090300" lon="-5.882634"><ele>722.4</ele><time>2015-07-07T05:13:03Z</time></trkpt><trkpt lat="40.090516" lon="-5.882456"><ele>720.9</ele><time>2015-07-07T05:13:24Z</time></trkpt><trkpt lat="40.090755" lon="-5.882296"><ele>719.1</ele><time>2015-07-07T05:13:45Z</time></trkpt><trkpt lat="40.091001" lon="-5.882148"><ele>719.2</ele><time>2015-07-07T05:14:06Z</time></trkpt><trkpt lat="40.091341" lon="-5.882068"><ele>715.5</ele><time>2015-07-07T05:14:27Z</time></trkpt><trkpt lat="40.091558" lon="-5.882048"><ele>711.8</ele><time>2015-07-07T05:14:48Z</time></trkpt><trkpt lat="40.091762" lon="-5.881986"><ele>709.9</ele><time>2015-07-07T05:15:09Z</time></trkpt><trkpt lat="40.091857" lon="-5.881973"><ele>709.1</ele><time>2015-07-07T05:15:30Z</time></trkpt><trkpt lat="40.091838" lon="-5.881831"><ele>711.7</ele><time>2015-07-07T05:15:51Z</time></trkpt><trkpt lat="40.091699" lon="-5.881614"><ele>716.5</ele><time>2015-07-07T05:16:12Z</time></trkpt><trkpt lat="40.091702" lon="-5.881491"><ele>716.4</ele><time>2015-07-07T05:16:33Z</time></trkpt><trkpt lat="40.091829" lon="-5.881661"><ele>714.7</ele><time>2015-07-07T05:16:54Z</time></trkpt><trkpt lat="40.092013" lon="-5.881868"><ele>709.1</ele><time>2015-07-07T05:17:15Z</time></trkpt><trkpt lat="40.092179" lon="-5.882063"><ele>704.6</ele><time>2015-07-07T05:17:36Z</time></trkpt><trkpt lat="40.092239" lon="-5.882200"><ele>702.5</ele><time>2015-07-07T05:17:57Z</time></trkpt><trkpt lat="40.092127" lon="-5.882354"><ele>701.3</ele><time>2015-07-07T05:18:18Z</time></trkpt><trkpt lat="40.091833" lon="-5.882412"><ele>701.9</ele><time>2015-07-07T05:18:39Z</time></trkpt><trkpt lat="40.091646" lon="-5.882492"><ele>701.4</ele><time>2015-07-07T05:19:00Z</time></trkpt><trkpt lat="40.091595" lon="-5.882536"><ele>701.3</ele><time>2015-07-07T05:19:21Z</time></trkpt><trkpt lat="40.091646" lon="-5.882679"><ele>699.6</ele><time>2015-07-07T05:19:42Z</time></trkpt><trkpt lat="40.091768" lon="-5.882819"><ele>698.3</ele><time>2015-07-07T05:20:03Z</time></trkpt><trkpt lat="40.091822" lon="-5.883015"><ele>697.0</ele><time>2015-07-07T05:20:24Z</time></trkpt><trkpt lat="40.091908" lon="-5.883183"><ele>696.3</ele><time>2015-07-07T05:20:45Z</time></trkpt><trkpt lat="40.091844" lon="-5.883415"><ele>696.6</ele><time>2015-07-07T05:21:06Z</time></trkpt><trkpt lat="40.091741" lon="-5.883545"><ele>698.4</ele><time>2015-07-07T05:21:27Z</time></trkpt><trkpt lat="40.091601" lon="-5.883586"><ele>698.0</ele><time>2015-07-07T05:21:48Z</time></trkpt><trkpt lat="40.091462" lon="-5.883709"><ele>698.6</ele><time>2015-07-07T05:22:09Z</time></trkpt><trkpt lat="40.091247" lon="-5.884035"><ele>700.0</ele><time>2015-07-07T05:22:30Z</time></trkpt><trkpt lat="40.091056" lon="-5.884302"><ele>701.2</ele><time>2015-07-07T05:22:51Z</time></trkpt><trkpt lat="40.090859" lon="-5.884622"><ele>704.9</ele><time>2015-07-07T05:23:12Z</time></trkpt><trkpt lat="40.090721" lon="-5.884898"><ele>707.9</ele><time>2015-07-07T05:23:33Z</time></trkpt><trkpt lat="40.090576" lon="-5.885109"><ele>709.3</ele><time>2015-07-07T05:23:54Z</time></trkpt><trkpt lat="40.090489" lon="-5.885345"><ele>714.5</ele><time>2015-07-07T05:24:15Z</time></trkpt><trkpt lat="40.090374" lon="-5.885446"><ele>714.9</ele><time>2015-07-07T05:24:36Z</time></trkpt><trkpt lat="40.090192" lon="-5.885521"><ele>712.9</ele><time>2015-07-07T05:24:57Z</time></trkpt><trkpt lat="40.090009" lon="-5.885659"><ele>713.1</ele><time>2015-07-07T05:25:18Z</time></trkpt><trkpt lat="40.089920" lon="-5.885767"><ele>716.2</ele><time>2015-07-07T05:25:39Z</time></trkpt><trkpt lat="40.089844" lon="-5.885758"><ele>715.4</ele><time>2015-07-07T05:26:00Z</time></trkpt><trkpt lat="40.089737" lon="-5.885718"><ele>713.4</ele><time>2015-07-07T05:26:21Z</time></trkpt><trkpt lat="40.089602" lon="-5.885730"><ele>713.0</ele><time>2015-07-07T05:26:42Z</time></trkpt><trkpt lat="40.089515" lon="-5.885773"><ele>714.0</ele><time>2015-07-07T05:27:03Z</time></trkpt><trkpt lat="40.089423" lon="-5.885828"><ele>715.4</ele><time>2015-07-07T05:27:24Z</time></trkpt><trkpt lat="40.089331" lon="-5.885930"><ele>718.2</ele><time>2015-07-07T05:27:45Z</time></trkpt><trkpt lat="40.089199" lon="-5.885983"><ele>719.1</ele><time>2015-07-07T05:28:06Z</time></trkpt><trkpt lat="40.089105" lon="-5.885950"><ele>716.9</ele><time>2015-07-07T05:28:27Z</time></trkpt><trkpt lat="40.089001" lon="-5.885951"><ele>715.6</ele><time>2015-07-07T05:28:48Z</time></trkpt><trkpt lat="40.088891" lon="-5.886046"><ele>717.3</ele><time>2015-07-07T05:29:09Z</time></trkpt><trkpt lat="40.088776" lon="-5.886147"><ele>719.4</ele><time>2015-07-07T05:29:30Z</time></trkpt><trkpt lat="40.088666" lon="-5.886201"><ele>720.0</ele><time>2015-07-07T05:29:51Z</time></trkpt><trkpt lat="40.088558" lon="-5.886214"><ele>719.2</ele><time>2015-07-07T05:30:12Z</time></trkpt><trkpt lat="40.088419" lon="-5.886208"><ele>717.4</ele><time>2015-07-07T05:30:33Z</time></trkpt><trkpt lat="40.088235" lon="-5.886177"><ele>714.3</ele><time>2015-07-07T05:30:54Z</time></trkpt><trkpt lat="40.088001" lon="-5.886143"><ele>711.0</ele><time>2015-07-07T05:31:15Z</time></trkpt><trkpt lat="40.087816" lon="-5.886153"><ele>709.7</ele><time>2015-07-07T05:31:36Z</time></trkpt><trkpt lat="40.087623" lon="-5.886163"><ele>708.4</ele><time>2015-07-07T05:31:57Z</time></trkpt><trkpt lat="40.087388" lon="-5.886176"><ele>707.7</ele><time>2015-07-07T05:32:18Z</time></trkpt><trkpt lat="40.087182" lon="-5.886138"><ele>706.2</ele><time>2015-07-07T05:32:39Z</time></trkpt><trkpt lat="40.086934" lon="-5.886122"><ele>705.5</ele><time>2015-07-07T05:33:00Z</time></trkpt><trkpt lat="40.086762" lon="-5.886167"><ele>706.9</ele><time>2015-07-07T05:33:21Z</time></trkpt><trkpt lat="40.086662" lon="-5.886210"><ele>708.1</ele><time>2015-07-07T05:33:42Z</time></trkpt><trkpt lat="40.086464" lon="-5.886377"><ele>710.9</ele><time>2015-07-07T05:34:03Z</time></trkpt><trkpt lat="40.086271" lon="-5.886528"><ele>713.2</ele><time>2015-07-07T05:34:24Z</time></trkpt><trkpt lat="40.086057" lon="-5.886612"><ele>713.1</ele><time>2015-07-07T05:34:45Z</time></trkpt><trkpt lat="40.085852" lon="-5.886715"><ele>713.6</ele><time>2015-07-07T05:35:06Z</time></trkpt><trkpt lat="40.085657" lon="-5.886771"><ele>711.2</ele><time>2015-07-07T05:35:27Z</time></trkpt><trkpt lat="40.085527" lon="-5.886924"><ele>712.9</ele><time>2015-07-07T05:35:48Z</time></trkpt><trkpt lat="40.085351" lon="-5.887128"><ele>715.6</ele><time>2015-07-07T05:36:09Z</time></trkpt><trkpt lat="40.085095" lon="-5.887293"><ele>716.0</ele><time>2015-07-07T05:36:30Z</time></trkpt><trkpt lat="40.084880" lon="-5.887395"><ele>715.7</ele><time>2015-07-07T05:36:51Z</time></trkpt><trkpt lat="40.084649" lon="-5.887473"><ele>714.9</ele><time>2015-07-07T05:37:12Z</time></trkpt><trkpt lat="40.084358" lon="-5.887578"><ele>714.8</ele><time>2015-07-07T05:37:33Z</time></trkpt><trkpt lat="40.084108" lon="-5.887673"><ele>715.5</ele><time>2015-07-07T05:37:54Z</time></trkpt><trkpt lat="40.083940" lon="-5.887701"><ele>715.6</ele><time>2015-07-07T05:38:15Z</time></trkpt><trkpt lat="40.083792" lon="-5.887683"><ele>714.1</ele><time>2015-07-07T05:38:36Z</time></trkpt><trkpt lat="40.083572" lon="-5.887657"><ele>711.8</ele><time>2015-07-07T05:38:57Z</time></trkpt><trkpt lat="40.083405" lon="-5.887685"><ele>711.9</ele><time>2015-07-07T05:39:18Z</time></trkpt><trkpt lat="40.083174" lon="-5.887745"><ele>712.1</ele><time>2015-07-07T05:39:39Z</time></trkpt><trkpt lat="40.082951" lon="-5.887824"><ele>712.6</ele><time>2015-07-07T05:40:00Z</time></trkpt><trkpt lat="40.082754" lon="-5.887974"><ele>714.9</ele><time>2015-07-07T05:40:21Z</time></trkpt><trkpt lat="40.082559" lon="-5.888200"><ele>718.5</ele><time>2015-07-07T05:40:42Z</time></trkpt><trkpt lat="40.082399" lon="-5.888457"><ele>722.6</ele><time>2015-07-07T05:41:03Z</time></trkpt><trkpt lat="40.082181" lon="-5.888741"><ele>725.4</ele><time>2015-07-07T05:41:24Z</time></trkpt><trkpt lat="40.082008" lon="-5.888957"><ele>726.3</ele><time>2015-07-07T05:41:45Z</time></trkpt><trkpt lat="40.081900" lon="-5.889169"><ele>728.1</ele><time>2015-07-07T05:42:06Z</time></trkpt><trkpt lat="40.081808" lon="-5.889405"><ele>732.2</ele><time>2015-07-07T05:42:27Z</time></trkpt><trkpt lat="40.081678" lon="-5.889576"><ele>733.1</ele><time>2015-07-07T05:42:48Z</time></trkpt><trkpt lat="40.081567" lon="-5.889671"><ele>732.8</ele><time>2015-07-07T05:43:09Z</time></trkpt><trkpt lat="40.081464" lon="-5.889678"><ele>730.2</ele><time>2015-07-07T05:43:30Z</time></trkpt><trkpt lat="40.081379" lon="-5.889798"><ele>730.9</ele><time>2015-07-07T05:43:51Z</time></trkpt><trkpt lat="40.081238" lon="-5.890038"><ele>732.6</ele><time>2015-07-07T05:44:12Z</time></trkpt><trkpt lat="40.081051" lon="-5.890323"><ele>733.9</ele><time>2015-07-07T05:44:33Z</time></trkpt><trkpt lat="40.080888" lon="-5.890557"><ele>734.7</ele><time>2015-07-07T05:44:54Z</time></trkpt><trkpt lat="40.080746" lon="-5.890803"><ele>736.7</ele><time>2015-07-07T05:45:15Z</time></trkpt><trkpt lat="40.080718" lon="-5.891019"><ele>739.4</ele><time>2015-07-07T05:45:36Z</time></trkpt><trkpt lat="40.080655" lon="-5.891198"><ele>740.4</ele><time>2015-07-07T05:45:57Z</time></trkpt><trkpt lat="40.080571" lon="-5.891335"><ele>740.2</ele><time>2015-07-07T05:46:18Z</time></trkpt><trkpt lat="40.080446" lon="-5.891453"><ele>738.8</ele><time>2015-07-07T05:46:39Z</time></trkpt><trkpt lat="40.080335" lon="-5.891600"><ele>738.3</ele><time>2015-07-07T05:47:00Z</time></trkpt><trkpt lat="40.080218" lon="-5.891777"><ele>737.8</ele><time>2015-07-07T05:47:21Z</time></trkpt><trkpt lat="40.080094" lon="-5.892018"><ele>737.8</ele><time>2015-07-07T05:47:42Z</time></trkpt><trkpt lat="40.080007" lon="-5.892267"><ele>739.1</ele><time>2015-07-07T05:48:03Z</time></trkpt><trkpt lat="40.079973" lon="-5.892552"><ele>742.2</ele><time>2015-07-07T05:48:24Z</time></trkpt><trkpt lat="40.079915" lon="-5.892884"><ele>745.4</ele><time>2015-07-07T05:48:45Z</time></trkpt><trkpt lat="40.079834" lon="-5.893232"><ele>748.9</ele><time>2015-07-07T05:49:06Z</time></trkpt><trkpt lat="40.079783" lon="-5.893477"><ele>751.1</ele><time>2015-07-07T05:49:27Z</time></trkpt><trkpt lat="40.079825" lon="-5.893789"><ele>754.8</ele><time>2015-07-07T05:49:48Z</time></trkpt><trkpt lat="40.079817" lon="-5.893935"><ele>756.2</ele><time>2015-07-07T05:50:09Z</time></trkpt><trkpt lat="40.079736" lon="-5.894119"><ele>757.0</ele><time>2015-07-07T05:50:30Z</time></trkpt><trkpt lat="40.079721" lon="-5.894347"><ele>757.1</ele><time>2015-07-07T05:50:51Z</time></trkpt><trkpt lat="40.079702" lon="-5.894546"><ele>756.5</ele><time>2015-07-07T05:51:12Z</time></trkpt><trkpt lat="40.079687" lon="-5.894798"><ele>755.9</ele><time>2015-07-07T05:51:33Z</time></trkpt><trkpt lat="40.079697" lon="-5.894962"><ele>755.9</ele><time>2015-07-07T05:51:54Z</time></trkpt><trkpt lat="40.079778" lon="-5.895124"><ele>755.9</ele><time>2015-07-07T05:52:15Z</time></trkpt><trkpt lat="40.079897" lon="-5.895404"><ele>755.0</ele><time>2015-07-07T05:52:36Z</time></trkpt><trkpt lat="40.080018" lon="-5.895609"><ele>754.9</ele><time>2015-07-07T05:52:57Z</time></trkpt><trkpt lat="40.080147" lon="-5.895673"><ele>755.8</ele><time>2015-07-07T05:53:18Z</time></trkpt><trkpt lat="40.080388" lon="-5.895754"><ele>758.0</ele><time>2015-07-07T05:53:39Z</time></trkpt><trkpt lat="40.080566" lon="-5.895837"><ele>759.4</ele><time>2015-07-07T05:54:00Z</time></trkpt><trkpt lat="40.080716" lon="-5.895967"><ele>759.0</ele><time>2015-07-07T05:54:21Z</time></trkpt><trkpt lat="40.080841" lon="-5.896025"><ele>759.5</ele><time>2015-07-07T05:54:42Z</time></trkpt><trkpt lat="40.081095" lon="-5.895971"><ele>758.7</ele><time>2015-07-07T05:55:03Z</time></trkpt><trkpt lat="40.081331" lon="-5.895893"><ele>758.4</ele><time>2015-07-07T05:55:24Z</time></trkpt><trkpt lat="40.081477" lon="-5.895800"><ele>758.9</ele><time>2015-07-07T05:55:45Z</time></trkpt><trkpt lat="40.081695" lon="-5.895721"><ele>759.2</ele><time>2015-07-07T05:56:06Z</time></trkpt><trkpt lat="40.081846" lon="-5.895657"><ele>760.6</ele><time>2015-07-07T05:56:27Z</time></trkpt><trkpt lat="40.082084" lon="-5.895673"><ele>760.4</ele><time>2015-07-07T05:56:48Z</time></trkpt><trkpt lat="40.082237" lon="-5.895691"><ele>760.1</ele><time>2015-07-07T05:57:09Z</time></trkpt><trkpt lat="40.082314" lon="-5.895653"><ele>761.2</ele><time>2015-07-07T05:57:30Z</time></trkpt><trkpt lat="40.082467" lon="-5.895648"><ele>761.5</ele><time>2015-07-07T05:57:51Z</time></trkpt><trkpt lat="40.082777" lon="-5.895708"><ele>762.3</ele><time>2015-07-07T05:58:12Z</time></trkpt><trkpt lat="40.082930" lon="-5.895709"><ele>763.6</ele><time>2015-07-07T05:58:33Z</time></trkpt><trkpt lat="40.083227" lon="-5.895721"><ele>765.9</ele><time>2015-07-07T05:58:54Z</time></trkpt><trkpt lat="40.083475" lon="-5.895685"><ele>767.6</ele><time>2015-07-07T05:59:15Z</time></trkpt><trkpt lat="40.083710" lon="-5.895660"><ele>767.5</ele><time>2015-07-07T05:59:36Z</time></trkpt><trkpt lat="40.083943" lon="-5.895699"><ele>765.2</ele><time>2015-07-07T05:59:57Z</time></trkpt><trkpt lat="40.084120" lon="-5.895654"><ele>766.0</ele><time>2015-07-07T06:00:18Z</time></trkpt><trkpt lat="40.084325" lon="-5.895557"><ele>767.2</ele><time>2015-07-07T06:00:39Z</time></trkpt><trkpt lat="40.084476" lon="-5.895475"><ele>768.1</ele><time>2015-07-07T06:01:00Z</time></trkpt><trkpt lat="40.084751" lon="-5.895299"><ele>770.6</ele><time>2015-07-07T06:01:21Z</time></trkpt><trkpt lat="40.084866" lon="-5.895187"><ele>772.7</ele><time>2015-07-07T06:01:42Z</time></trkpt><trkpt lat="40.085046" lon="-5.895177"><ele>771.5</ele><time>2015-07-07T06:02:03Z</time></trkpt><trkpt lat="40.085336" lon="-5.895137"><ele>772.9</ele><time>2015-07-07T06:02:24Z</time></trkpt><trkpt lat="40.085557" lon="-5.895111"><ele>773.7</ele><time>2015-07-07T06:02:45Z</time></trkpt><trkpt lat="40.085755" lon="-5.895102"><ele>774.0</ele><time>2015-07-07T06:03:06Z</time></trkpt><trkpt lat="40.085906" lon="-5.895014"><ele>777.6</ele><time>2015-07-07T06:03:27Z</time></trkpt><trkpt lat="40.086024" lon="-5.894984"><ele>780.3</ele><time>2015-07-07T06:03:48Z</time></trkpt><trkpt lat="40.086149" lon="-5.895019"><ele>781.0</ele><time>2015-07-07T06:04:09Z</time></trkpt><trkpt lat="40.086350" lon="-5.895115"><ele>780.9</ele><time>2015-07-07T06:04:30Z</time></trkpt><trkpt lat="40.086553" lon="-5.895264"><ele>778.9</ele><time>2015-07-07T06:04:51Z</time></trkpt><trkpt lat="40.086734" lon="-5.895407"><ele>776.6</ele><time>2015-07-07T06:05:12Z</time></trkpt><trkpt lat="40.086942" lon="-5.895557"><ele>774.1</ele><time>2015-07-07T06:05:33Z</time></trkpt><trkpt lat="40.087062" lon="-5.895614"><ele>773.7</ele><time>2015-07-07T06:05:54Z</time></trkpt><trkpt lat="40.087225" lon="-5.895592"><ele>776.3</ele><time>2015-07-07T06:06:15Z</time></trkpt><trkpt lat="40.087437" lon="-5.895578"><ele>779.2</ele><time>2015-07-07T06:06:36Z</time></trkpt><trkpt lat="40.087594" lon="-5.895590"><ele>780.7</ele><time>2015-07-07T06:06:57Z</time></trkpt><trkpt lat="40.087726" lon="-5.895560"><ele>783.1</ele><time>2015-07-07T06:07:18Z</time></trkpt><trkpt lat="40.087880" lon="-5.895514"><ele>786.0</ele><time>2015-07-07T06:07:39Z</time></trkpt><trkpt lat="40.088066" lon="-5.895452"><ele>789.6</ele><time>2015-07-07T06:08:00Z</time></trkpt><trkpt lat="40.088248" lon="-5.895372"><ele>793.2</ele><time>2015-07-07T06:08:21Z</time></trkpt><trkpt lat="40.088384" lon="-5.895348"><ele>795.6</ele><time>2015-07-07T06:08:42Z</time></trkpt><trkpt lat="40.088509" lon="-5.895371"><ele>797.7</ele><time>2015-07-07T06:09:03Z</time></trkpt><trkpt lat="40.088674" lon="-5.895466"><ele>799.4</ele><time>2015-07-07T06:09:24Z</time></trkpt><trkpt lat="40.088794" lon="-5.895524"><ele>800.9</ele><time>2015-07-07T06:09:45Z</time></trkpt><trkpt lat="40.088837" lon="-5.895584"><ele>800.8</ele><time>2015-07-07T06:10:06Z</time></trkpt><trkpt lat="40.088883" lon="-5.895750"><ele>798.7</ele><time>2015-07-07T06:10:27Z</time></trkpt><trkpt lat="40.088938" lon="-5.895870"><ele>798.2</ele><time>2015-07-07T06:10:48Z</time></trkpt><trkpt lat="40.088978" lon="-5.895924"><ele>798.6</ele><time>2015-07-07T06:11:09Z</time></trkpt><trkpt lat="40.089010" lon="-5.895873"><ele>799.9</ele><time>2015-07-07T06:11:30Z</time></trkpt><trkpt lat="40.089055" lon="-5.895693"><ele>803.8</ele><time>2015-07-07T06:11:51Z</time></trkpt><trkpt lat="40.089038" lon="-5.895493"><ele>806.9</ele><time>2015-07-07T06:12:12Z</time></trkpt><trkpt lat="40.089018" lon="-5.895369"><ele>808.6</ele><time>2015-07-07T06:12:33Z</time></trkpt><trkpt lat="40.088854" lon="-5.895280"><ele>806.8</ele><time>2015-07-07T06:12:54Z</time></trkpt><trkpt lat="40.088525" lon="-5.895108"><ele>803.5</ele><time>2015-07-07T06:13:15Z</time></trkpt><trkpt lat="40.088254" lon="-5.894961"><ele>803.1</ele><time>2015-07-07T06:13:36Z</time></trkpt><trkpt lat="40.088008" lon="-5.894898"><ele>804.2</ele><time>2015-07-07T06:13:57Z</time></trkpt><trkpt lat="40.087688" lon="-5.894896"><ele>802.7</ele><time>2015-07-07T06:14:18Z</time></trkpt><trkpt lat="40.087405" lon="-5.894867"><ele>801.7</ele><time>2015-07-07T06:14:39Z</time></trkpt><trkpt lat="40.087169" lon="-5.894780"><ele>801.7</ele><time>2015-07-07T06:15:00Z</time></trkpt><trkpt lat="40.086924" lon="-5.894647"><ele>802.7</ele><time>2015-07-07T06:15:21Z</time></trkpt><trkpt lat="40.086730" lon="-5.894492"><ele>804.6</ele><time>2015-07-07T06:15:42Z</time></trkpt><trkpt lat="40.086560" lon="-5.894262"><ele>809.1</ele><time>2015-07-07T06:16:03Z</time></trkpt><trkpt lat="40.086378" lon="-5.893985"><ele>815.8</ele><time>2015-07-07T06:16:24Z</time></trkpt><trkpt lat="40.086277" lon="-5.893875"><ele>818.4</ele><time>2015-07-07T06:16:45Z</time></trkpt><trkpt lat="40.085995" lon="-5.893793"><ele>818.5</ele><time>2015-07-07T06:17:06Z</time></trkpt><trkpt lat="40.085645" lon="-5.893748"><ele>818.6</ele><time>2015-07-07T06:17:27Z</time></trkpt><trkpt lat="40.085394" lon="-5.893720"><ele>819.5</ele><time>2015-07-07T06:17:48Z</time></trkpt><trkpt lat="40.085197" lon="-5.893653"><ele>821.9</ele><time>2015-07-07T06:18:09Z</time></trkpt><trkpt lat="40.085027" lon="-5.893628"><ele>822.7</ele><time>2015-07-07T06:18:30Z</time></trkpt><trkpt lat="40.084965" lon="-5.893567"><ele>825.1</ele><time>2015-07-07T06:18:51Z</time></trkpt><trkpt lat="40.084989" lon="-5.893492"><ele>827.5</ele><time>2015-07-07T06:19:12Z</time></trkpt><trkpt lat="40.085226" lon="-5.893414"><ele>830.2</ele><time>2015-07-07T06:19:33Z</time></trkpt><trkpt lat="40.085517" lon="-5.893268"><ele>835.0</ele><time>2015-07-07T06:19:54Z</time></trkpt><trkpt lat="40.085859" lon="-5.893124"><ele>839.7</ele><time>2015-07-07T06:20:15Z</time></trkpt><trkpt lat="40.086162" lon="-5.893055"><ele>843.8</ele><time>2015-07-07T06:20:36Z</time></trkpt><trkpt lat="40.086447" lon="-5.893026"><ele>846.5</ele><time>2015-07-07T06:20:57Z</time></trkpt><trkpt lat="40.086725" lon="-5.893055"><ele>847.7</ele><time>2015-07-07T06:21:18Z</time></trkpt><trkpt lat="40.087151" lon="-5.893126"><ele>850.6</ele><time>2015-07-07T06:21:39Z</time></trkpt><trkpt lat="40.087505" lon="-5.893206"><ele>853.0</ele><time>2015-07-07T06:22:00Z</time></trkpt><trkpt lat="40.087859" lon="-5.893303"><ele>855.8</ele><time>2015-07-07T06:22:21Z</time></trkpt><trkpt lat="40.088169" lon="-5.893316"><ele>860.0</ele><time>2015-07-07T06:22:42Z</time></trkpt><trkpt lat="40.088543" lon="-5.893314"><ele>863.9</ele><time>2015-07-07T06:23:03Z</time></trkpt><trkpt lat="40.088894" lon="-5.893329"><ele>866.1</ele><time>2015-07-07T06:23:24Z</time></trkpt><trkpt lat="40.089224" lon="-5.893284"><ele>869.4</ele><time>2015-07-07T06:23:45Z</time></trkpt><trkpt lat="40.089405" lon="-5.893228"><ele>872.0</ele><time>2015-07-07T06:24:06Z</time></trkpt><trkpt lat="40.089566" lon="-5.893111"><ele>875.3</ele><time>2015-07-07T06:24:27Z</time></trkpt><trkpt lat="40.089546" lon="-5.892993"><ele>877.0</ele><time>2015-07-07T06:24:48Z</time></trkpt><trkpt lat="40.089458" lon="-5.892731"><ele>880.6</ele><time>2015-07-07T06:25:09Z</time></trkpt><trkpt lat="40.089419" lon="-5.892665"><ele>881.5</ele><time>2015-07-07T06:25:30Z</time></trkpt><trkpt lat="40.089421" lon="-5.892589"><ele>882.7</ele><time>2015-07-07T06:25:51Z</time></trkpt><trkpt lat="40.089660" lon="-5.892587"><ele>884.0</ele><time>2015-07-07T06:26:12Z</time></trkpt><trkpt lat="40.089922" lon="-5.892540"><ele>886.1</ele><time>2015-07-07T06:26:33Z</time></trkpt><trkpt lat="40.090158" lon="-5.892480"><ele>888.7</ele><time>2015-07-07T06:26:54Z</time></trkpt><trkpt lat="40.090346" lon="-5.892364"><ele>890.6</ele><time>2015-07-07T06:27:15Z</time></trkpt><trkpt lat="40.090474" lon="-5.892270"><ele>892.0</ele><time>2015-07-07T06:27:36Z</time></trkpt><trkpt lat="40.090554" lon="-5.892320"><ele>892.9</ele><time>2015-07-07T06:27:57Z</time></trkpt><trkpt lat="40.090655" lon="-5.892430"><ele>894.1</ele><time>2015-07-07T06:28:18Z</time></trkpt><trkpt lat="40.090834" lon="-5.892461"><ele>896.0</ele><time>2015-07-07T06:28:39Z</time></trkpt><trkpt lat="40.090966" lon="-5.892426"><ele>898.2</ele><time>2015-07-07T06:29:00Z</time></trkpt><trkpt lat="40.091140" lon="-5.892292"><ele>900.8</ele><time>2015-07-07T06:29:21Z</time></trkpt><trkpt lat="40.091290" lon="-5.892258"><ele>903.0</ele><time>2015-07-07T06:29:42Z</time></trkpt><trkpt lat="40.091437" lon="-5.892323"><ele>905.5</ele><time>2015-07-07T06:30:03Z</time></trkpt><trkpt lat="40.091570" lon="-5.892375"><ele>907.8</ele><time>2015-07-07T06:30:24Z</time></trkpt><trkpt lat="40.091728" lon="-5.892382"><ele>910.9</ele><time>2015-07-07T06:30:45Z</time></trkpt><trkpt lat="40.091799" lon="-5.892402"><ele>912.8</ele><time>2015-07-07T06:31:06Z</time></trkpt><trkpt lat="40.091829" lon="-5.892644"><ele>914.1</ele><time>2015-07-07T06:31:27Z</time></trkpt><trkpt lat="40.091819" lon="-5.892896"><ele>913.7</ele><time>2015-07-07T06:31:48Z</time></trkpt><trkpt lat="40.091838" lon="-5.893196"><ele>914.2</ele><time>2015-07-07T06:32:09Z</time></trkpt><trkpt lat="40.091904" lon="-5.893451"><ele>915.4</ele><time>2015-07-07T06:32:30Z</time></trkpt><trkpt lat="40.091955" lon="-5.893740"><ele>915.0</ele><time>2015-07-07T06:32:51Z</time></trkpt><trkpt lat="40.092025" lon="-5.894013"><ele>915.1</ele><time>2015-07-07T06:33:12Z</time></trkpt><trkpt lat="40.092192" lon="-5.894360"><ele>916.4</ele><time>2015-07-07T06:33:33Z</time></trkpt><trkpt lat="40.092358" lon="-5.894742"><ele>916.6</ele><time>2015-07-07T06:33:54Z</time></trkpt><trkpt lat="40.092485" lon="-5.895059"><ele>915.8</ele><time>2015-07-07T06:34:15Z</time></trkpt><trkpt lat="40.092634" lon="-5.895247"><ele>915.6</ele><time>2015-07-07T06:34:36Z</time></trkpt><trkpt lat="40.092801" lon="-5.895400"><ele>916.7</ele><time>2015-07-07T06:34:57Z</time></trkpt><trkpt lat="40.092953" lon="-5.895630"><ele>916.8</ele><time>2015-07-07T06:35:18Z</time></trkpt><trkpt lat="40.093102" lon="-5.895794"><ele>918.2</ele><time>2015-07-07T06:35:39Z</time></trkpt><trkpt lat="40.093096" lon="-5.896046"><ele>917.6</ele><time>2015-07-07T06:36:00Z</time></trkpt><trkpt lat="40.093023" lon="-5.896248"><ele>915.6</ele><time>2015-07-07T06:36:21Z</time></trkpt><trkpt lat="40.092992" lon="-5.896599"><ele>914.2</ele><time>2015-07-07T06:36:42Z</time></trkpt><trkpt lat="40.093019" lon="-5.896946"><ele>915.2</ele><time>2015-07-07T06:37:03Z</time></trkpt><trkpt lat="40.093054" lon="-5.897346"><ele>916.8</ele><time>2015-07-07T06:37:24Z</time></trkpt><trkpt lat="40.093119" lon="-5.897806"><ele>923.4</ele><time>2015-07-07T06:37:45Z</time></trkpt><trkpt lat="40.093148" lon="-5.898095"><ele>928.2</ele><time>2015-07-07T06:38:06Z</time></trkpt><trkpt lat="40.093151" lon="-5.898330"><ele>931.3</ele><time>2015-07-07T06:38:27Z</time></trkpt><trkpt lat="40.093122" lon="-5.898598"><ele>934.8</ele><time>2015-07-07T06:38:48Z</time></trkpt><trkpt lat="40.093023" lon="-5.898752"><ele>933.8</ele><time>2015-07-07T06:39:09Z</time></trkpt><trkpt lat="40.092862" lon="-5.898886"><ele>930.5</ele><time>2015-07-07T06:39:30Z</time></trkpt><trkpt lat="40.092690" lon="-5.899096"><ele>928.8</ele><time>2015-07-07T06:39:51Z</time></trkpt><trkpt lat="40.092565" lon="-5.899237"><ele>927.4</ele><time>2015-07-07T06:40:12Z</time></trkpt><trkpt lat="40.092447" lon="-5.899455"><ele>927.4</ele><time>2015-07-07T06:40:33Z</time></trkpt><trkpt lat="40.092378" lon="-5.899698"><ele>929.9</ele><time>2015-07-07T06:40:54Z</time></trkpt><trkpt lat="40.092320" lon="-5.899848"><ele>931.3</ele><time>2015-07-07T06:41:15Z</time></trkpt><trkpt lat="40.092223" lon="-5.899950"><ele>931.0</ele><time>2015-07-07T06:41:36Z</time></trkpt><trkpt lat="40.092049" lon="-5.900060"><ele>929.4</ele><time>2015-07-07T06:41:57Z</time></trkpt><trkpt lat="40.091876" lon="-5.900140"><ele>927.3</ele><time>2015-07-07T06:42:18Z</time></trkpt><trkpt lat="40.091689" lon="-5.900256"><ele>925.7</ele><time>2015-07-07T06:42:39Z</time></trkpt><trkpt lat="40.091500" lon="-5.900412"><ele>923.0</ele><time>2015-07-07T06:43:00Z</time></trkpt><trkpt lat="40.091362" lon="-5.900529"><ele>920.9</ele><time>2015-07-07T06:43:21Z</time></trkpt><trkpt lat="40.091231" lon="-5.900705"><ele>920.3</ele><time>2015-07-07T06:43:42Z</time></trkpt><trkpt lat="40.091098" lon="-5.901004"><ele>920.8</ele><time>2015-07-07T06:44:03Z</time></trkpt><trkpt lat="40.090993" lon="-5.901246"><ele>920.5</ele><time>2015-07-07T06:44:24Z</time></trkpt><trkpt lat="40.090891" lon="-5.901529"><ele>921.0</ele><time>2015-07-07T06:44:45Z</time></trkpt><trkpt lat="40.090825" lon="-5.901808"><ele>921.2</ele><time>2015-07-07T06:45:06Z</time></trkpt><trkpt lat="40.090810" lon="-5.902060"><ele>921.7</ele><time>2015-07-07T06:45:27Z</time></trkpt><trkpt lat="40.090786" lon="-5.902287"><ele>922.1</ele><time>2015-07-07T06:45:48Z</time></trkpt><trkpt lat="40.090788" lon="-5.902575"><ele>922.9</ele><time>2015-07-07T06:46:09Z</time></trkpt><trkpt lat="40.090878" lon="-5.902748"><ele>924.5</ele><time>2015-07-07T06:46:30Z</time></trkpt><trkpt lat="40.090943" lon="-5.902874"><ele>925.4</ele><time>2015-07-07T06:46:51Z</time></trkpt><trkpt lat="40.091099" lon="-5.902951"><ele>927.8</ele><time>2015-07-07T06:47:12Z</time></trkpt><trkpt lat="40.091388" lon="-5.903093"><ele>931.5</ele><time>2015-07-07T06:47:33Z</time></trkpt><trkpt lat="40.091560" lon="-5.903229"><ele>932.7</ele><time>2015-07-07T06:47:54Z</time></trkpt><trkpt lat="40.091764" lon="-5.903355"><ele>935.2</ele><time>2015-07-07T06:48:15Z</time></trkpt><trkpt lat="40.091959" lon="-5.903498"><ele>937.2</ele><time>2015-07-07T06:48:36Z</time></trkpt><trkpt lat="40.092153" lon="-5.903665"><ele>938.1</ele><time>2015-07-07T06:48:57Z</time></trkpt><trkpt lat="40.092393" lon="-5.903951"><ele>936.5</ele><time>2015-07-07T06:49:18Z</time></trkpt><trkpt lat="40.092630" lon="-5.904189"><ele>937.0</ele><time>2015-07-07T06:49:39Z</time></trkpt><trkpt lat="40.092814" lon="-5.904414"><ele>938.2</ele><time>2015-07-07T06:50:00Z</time></trkpt><trkpt lat="40.092966" lon="-5.904626"><ele>938.4</ele><time>2015-07-07T06:50:21Z</time></trkpt><trkpt lat="40.093103" lon="-5.904901"><ele>936.6</ele><time>2015-07-07T06:50:42Z</time></trkpt><trkpt lat="40.093312" lon="-5.905203"><ele>938.9</ele><time>2015-07-07T06:51:03Z</time></trkpt><trkpt lat="40.093435" lon="-5.905666"><ele>938.4</ele><time>2015-07-07T06:51:24Z</time></trkpt><trkpt lat="40.093512" lon="-5.906033"><ele>938.0</ele><time>2015-07-07T06:51:45Z</time></trkpt><trkpt lat="40.093593" lon="-5.906382"><ele>938.4</ele><time>2015-07-07T06:52:06Z</time></trkpt><trkpt lat="40.093643" lon="-5.906731"><ele>939.1</ele><time>2015-07-07T06:52:27Z</time></trkpt><trkpt lat="40.093615" lon="-5.906952"><ele>942.7</ele><time>2015-07-07T06:52:48Z</time></trkpt><trkpt lat="40.093495" lon="-5.907047"><ele>940.9</ele><time>2015-07-07T06:53:09Z</time></trkpt><trkpt lat="40.093260" lon="-5.907113"><ele>934.6</ele><time>2015-07-07T06:53:30Z</time></trkpt><trkpt lat="40.093031" lon="-5.907250"><ele>929.6</ele><time>2015-07-07T06:53:51Z</time></trkpt><trkpt lat="40.092842" lon="-5.907418"><ele>926.6</ele><time>2015-07-07T06:54:12Z</time></trkpt><trkpt lat="40.092718" lon="-5.907530"><ele>924.9</ele><time>2015-07-07T06:54:33Z</time></trkpt><trkpt lat="40.092551" lon="-5.907716"><ele>925.3</ele><time>2015-07-07T06:54:54Z</time></trkpt><trkpt lat="40.092385" lon="-5.907879"><ele>925.0</ele><time>2015-07-07T06:55:15Z</time></trkpt><trkpt lat="40.092178" lon="-5.908034"><ele>922.4</ele><time>2015-07-07T06:55:36Z</time></trkpt><trkpt lat="40.092060" lon="-5.908065"><ele>918.9</ele><time>2015-07-07T06:55:57Z</time></trkpt><trkpt lat="40.091923" lon="-5.908147"><ele>916.1</ele><time>2015-07-07T06:56:18Z</time></trkpt><trkpt lat="40.091806" lon="-5.908324"><ele>916.4</ele><time>2015-07-07T06:56:39Z</time></trkpt><trkpt lat="40.091659" lon="-5.908452"><ele>915.5</ele><time>2015-07-07T06:57:00Z</time></trkpt><trkpt lat="40.091405" lon="-5.908676"><ele>917.7</ele><time>2015-07-07T06:57:21Z</time></trkpt><trkpt lat="40.091255" lon="-5.908722"><ele>915.5</ele><time>2015-07-07T06:57:42Z</time></trkpt><trkpt lat="40.090993" lon="-5.908770"><ele>910.5</ele><time>2015-07-07T06:58:03Z</time></trkpt><trkpt lat="40.090671" lon="-5.908873"><ele>905.2</ele><time>2015-07-07T06:58:24Z</time></trkpt><trkpt lat="40.090460" lon="-5.908993"><ele>903.0</ele><time>2015-07-07T06:58:45Z</time></trkpt><trkpt lat="40.090299" lon="-5.909151"><ele>903.5</ele><time>2015-07-07T06:59:06Z</time></trkpt><trkpt lat="40.090077" lon="-5.909370"><ele>904.2</ele><time>2015-07-07T06:59:27Z</time></trkpt><trkpt lat="40.089886" lon="-5.909608"><ele>905.7</ele><time>2015-07-07T06:59:48Z</time></trkpt><trkpt lat="40.089728" lon="-5.909812"><ele>906.8</ele><time>2015-07-07T07:00:09Z</time></trkpt><trkpt lat="40.089484" lon="-5.910037"><ele>905.0</ele><time>2015-07-07T07:00:30Z</time></trkpt><trkpt lat="40.089274" lon="-5.910327"><ele>904.5</ele><time>2015-07-07T07:00:51Z</time></trkpt><trkpt lat="40.089069" lon="-5.910599"><ele>902.6</ele><time>2015-07-07T07:01:12Z</time></trkpt><trkpt lat="40.088878" lon="-5.910855"><ele>899.9</ele><time>2015-07-07T07:01:33Z</time></trkpt><trkpt lat="40.088709" lon="-5.911135"><ele>897.3</ele><time>2015-07-07T07:01:54Z</time></trkpt><trkpt lat="40.088590" lon="-5.911376"><ele>895.9</ele><time>2015-07-07T07:02:15Z</time></trkpt><trkpt lat="40.088440" lon="-5.911804"><ele>894.6</ele><time>2015-07-07T07:02:36Z</time></trkpt><trkpt lat="40.088340" lon="-5.912169"><ele>892.2</ele><time>2015-07-07T07:02:57Z</time></trkpt><trkpt lat="40.088281" lon="-5.912554"><ele>892.4</ele><time>2015-07-07T07:03:18Z</time></trkpt><trkpt lat="40.088245" lon="-5.912892"><ele>892.8</ele><time>2015-07-07T07:03:39Z</time></trkpt><trkpt lat="40.088206" lon="-5.913201"><ele>892.9</ele><time>2015-07-07T07:04:00Z</time></trkpt><trkpt lat="40.088198" lon="-5.913518"><ele>894.3</ele><time>2015-07-07T07:04:21Z</time></trkpt><trkpt lat="40.088169" lon="-5.913974"><ele>895.1</ele><time>2015-07-07T07:04:42Z</time></trkpt><trkpt lat="40.088118" lon="-5.914370"><ele>895.9</ele><time>2015-07-07T07:05:03Z</time></trkpt><trkpt lat="40.088003" lon="-5.914846"><ele>895.6</ele><time>2015-07-07T07:05:24Z</time></trkpt><trkpt lat="40.087911" lon="-5.915270"><ele>894.5</ele><time>2015-07-07T07:05:45Z</time></trkpt><trkpt lat="40.087855" lon="-5.915713"><ele>894.6</ele><time>2015-07-07T07:06:06Z</time></trkpt><trkpt lat="40.087786" lon="-5.916109"><ele>893.6</ele><time>2015-07-07T07:06:27Z</time></trkpt><trkpt lat="40.087813" lon="-5.916474"><ele>896.8</ele><time>2015-07-07T07:06:48Z</time></trkpt><trkpt lat="40.087887" lon="-5.916935"><ele>901.4</ele><time>2015-07-07T07:07:09Z</time></trkpt><trkpt lat="40.087896" lon="-5.917457"><ele>903.1</ele><time>2015-07-07T07:07:30Z</time></trkpt><trkpt lat="40.087831" lon="-5.917888"><ele>904.3</ele><time>2015-07-07T07:07:51Z</time></trkpt><trkpt lat="40.087663" lon="-5.918332"><ele>901.2</ele><time>2015-07-07T07:08:12Z</time></trkpt><trkpt lat="40.087463" lon="-5.918728"><ele>894.8</ele><time>2015-07-07T07:08:33Z</time></trkpt><trkpt lat="40.087332" lon="-5.919133"><ele>891.4</ele><time>2015-07-07T07:08:54Z</time></trkpt><trkpt lat="40.087281" lon="-5.919541"><ele>891.1</ele><time>2015-07-07T07:09:15Z</time></trkpt><trkpt lat="40.087248" lon="-5.919950"><ele>891.6</ele><time>2015-07-07T07:09:36Z</time></trkpt><trkpt lat="40.087228" lon="-5.920383"><ele>893.0</ele><time>2015-07-07T07:09:57Z</time></trkpt><trkpt lat="40.087282" lon="-5.920749"><ele>897.0</ele><time>2015-07-07T07:10:18Z</time></trkpt><trkpt lat="40.087322" lon="-5.921115"><ele>899.4</ele><time>2015-07-07T07:10:39Z</time></trkpt><trkpt lat="40.087293" lon="-5.921365"><ele>899.1</ele><time>2015-07-07T07:11:00Z</time></trkpt><trkpt lat="40.087189" lon="-5.921754"><ele>897.3</ele><time>2015-07-07T07:11:21Z</time></trkpt><trkpt lat="40.087086" lon="-5.921890"><ele>894.8</ele><time>2015-07-07T07:11:42Z</time></trkpt><trkpt lat="40.086947" lon="-5.921867"><ele>891.2</ele><time>2015-07-07T07:12:03Z</time></trkpt><trkpt lat="40.086803" lon="-5.921861"><ele>887.5</ele><time>2015-07-07T07:12:24Z</time></trkpt><trkpt lat="40.086668" lon="-5.921861"><ele>884.0</ele><time>2015-07-07T07:12:45Z</time></trkpt><trkpt lat="40.086576" lon="-5.921939"><ele>880.5</ele><time>2015-07-07T07:13:06Z</time></trkpt><trkpt lat="40.086466" lon="-5.922028"><ele>876.1</ele><time>2015-07-07T07:13:27Z</time></trkpt><trkpt lat="40.086446" lon="-5.922291"><ele>875.0</ele><time>2015-07-07T07:13:48Z</time></trkpt><trkpt lat="40.086486" lon="-5.922486"><ele>876.4</ele><time>2015-07-07T07:14:09Z</time></trkpt><trkpt lat="40.086584" lon="-5.922713"><ele>880.1</ele><time>2015-07-07T07:14:30Z</time></trkpt><trkpt lat="40.086647" lon="-5.923068"><ele>881.9</ele><time>2015-07-07T07:14:51Z</time></trkpt><trkpt lat="40.086640" lon="-5.923331"><ele>881.0</ele><time>2015-07-07T07:15:12Z</time></trkpt><trkpt lat="40.086592" lon="-5.923622"><ele>883.4</ele><time>2015-07-07T07:15:33Z</time></trkpt><trkpt lat="40.086451" lon="-5.923868"><ele>881.9</ele><time>2015-07-07T07:15:54Z</time></trkpt><trkpt lat="40.086239" lon="-5.924059"><ele>877.4</ele><time>2015-07-07T07:16:15Z</time></trkpt><trkpt lat="40.086119" lon="-5.924159"><ele>874.8</ele><time>2015-07-07T07:16:36Z</time></trkpt><trkpt lat="40.086046" lon="-5.924226"><ele>873.8</ele><time>2015-07-07T07:16:57Z</time></trkpt><trkpt lat="40.086006" lon="-5.924184"><ele>871.4</ele><time>2015-07-07T07:17:18Z</time></trkpt><trkpt lat="40.086078" lon="-5.924028"><ele>871.2</ele><time>2015-07-07T07:17:39Z</time></trkpt><trkpt lat="40.086188" lon="-5.923740"><ele>870.3</ele><time>2015-07-07T07:18:00Z</time></trkpt><trkpt lat="40.086305" lon="-5.923405"><ele>869.3</ele><time>2015-07-07T07:18:21Z</time></trkpt><trkpt lat="40.086292" lon="-5.923187"><ele>867.7</ele><time>2015-07-07T07:18:42Z</time></trkpt><trkpt lat="40.086200" lon="-5.922914"><ele>864.2</ele><time>2015-07-07T07:19:03Z</time></trkpt><trkpt lat="40.086094" lon="-5.922663"><ele>860.0</ele><time>2015-07-07T07:19:24Z</time></trkpt><trkpt lat="40.086010" lon="-5.922431"><ele>856.7</ele><time>2015-07-07T07:19:45Z</time></trkpt><trkpt lat="40.085936" lon="-5.922152"><ele>854.8</ele><time>2015-07-07T07:20:06Z</time></trkpt><trkpt lat="40.085894" lon="-5.921833"><ele>854.5</ele><time>2015-07-07T07:20:27Z</time></trkpt><trkpt lat="40.085860" lon="-5.921586"><ele>853.1</ele><time>2015-07-07T07:20:48Z</time></trkpt><trkpt lat="40.085862" lon="-5.921328"><ele>850.4</ele><time>2015-07-07T07:21:09Z</time></trkpt><trkpt lat="40.085927" lon="-5.921090"><ele>850.3</ele><time>2015-07-07T07:21:30Z</time></trkpt><trkpt lat="40.086033" lon="-5.920977"><ele>853.2</ele><time>2015-07-07T07:21:51Z</time></trkpt><trkpt lat="40.086107" lon="-5.920904"><ele>855.2</ele><time>2015-07-07T07:22:12Z</time></trkpt><trkpt lat="40.086112" lon="-5.920711"><ele>853.1</ele><time>2015-07-07T07:22:33Z</time></trkpt><trkpt lat="40.086099" lon="-5.920517"><ele>850.1</ele><time>2015-07-07T07:22:54Z</time></trkpt><trkpt lat="40.086133" lon="-5.920231"><ele>847.8</ele><time>2015-07-07T07:23:15Z</time></trkpt><trkpt lat="40.086205" lon="-5.919853"><ele>846.6</ele><time>2015-07-07T07:23:36Z</time></trkpt><trkpt lat="40.086257" lon="-5.919603"><ele>846.9</ele><time>2015-07-07T07:23:57Z</time></trkpt><trkpt lat="40.086263" lon="-5.919357"><ele>845.4</ele><time>2015-07-07T07:24:18Z</time></trkpt><trkpt lat="40.086313" lon="-5.918984"><ele>845.9</ele><time>2015-07-07T07:24:39Z</time></trkpt><trkpt lat="40.086278" lon="-5.918578"><ele>843.6</ele><time>2015-07-07T07:25:00Z</time></trkpt><trkpt lat="40.086166" lon="-5.918210"><ele>838.8</ele><time>2015-07-07T07:25:21Z</time></trkpt><trkpt lat="40.086052" lon="-5.917912"><ele>834.9</ele><time>2015-07-07T07:25:42Z</time></trkpt><trkpt lat="40.086014" lon="-5.917605"><ele>834.2</ele><time>2015-07-07T07:26:03Z</time></trkpt><trkpt lat="40.086000" lon="-5.917276"><ele>833.0</ele><time>2015-07-07T07:26:24Z</time></trkpt><trkpt lat="40.086066" lon="-5.917009"><ele>834.1</ele><time>2015-07-07T07:26:45Z</time></trkpt><trkpt lat="40.086162" lon="-5.916773"><ele>836.2</ele><time>2015-07-07T07:27:06Z</time></trkpt><trkpt lat="40.086312" lon="-5.916521"><ele>838.9</ele><time>2015-07-07T07:27:27Z</time></trkpt><trkpt lat="40.086380" lon="-5.916131"><ele>837.1</ele><time>2015-07-07T07:27:48Z</time></trkpt><trkpt lat="40.086450" lon="-5.915677"><ele>834.8</ele><time>2015-07-07T07:28:09Z</time></trkpt><trkpt lat="40.086511" lon="-5.915257"><ele>832.1</ele><time>2015-07-07T07:28:30Z</time></trkpt><trkpt lat="40.086609" lon="-5.914916"><ele>831.7</ele><time>2015-07-07T07:28:51Z</time></trkpt><trkpt lat="40.086765" lon="-5.914641"><ele>834.5</ele><time>2015-07-07T07:29:12Z</time></trkpt><trkpt lat="40.086837" lon="-5.914450"><ele>835.1</ele><time>2015-07-07T07:29:33Z</time></trkpt><trkpt lat="40.086870" lon="-5.914200"><ele>833.2</ele><time>2015-07-07T07:29:54Z</time></trkpt><trkpt lat="40.086866" lon="-5.913830"><ele>829.9</ele><time>2015-07-07T07:30:15Z</time></trkpt><trkpt lat="40.086882" lon="-5.913397"><ele>827.1</ele><time>2015-07-07T07:30:36Z</time></trkpt><trkpt lat="40.086936" lon="-5.913018"><ele>824.9</ele><time>2015-07-07T07:30:57Z</time></trkpt><trkpt lat="40.087004" lon="-5.912652"><ele>823.7</ele><time>2015-07-07T07:31:18Z</time></trkpt><trkpt lat="40.087023" lon="-5.912447"><ele>822.2</ele><time>2015-07-07T07:31:39Z</time></trkpt><trkpt lat="40.087026" lon="-5.912330"><ele>820.9</ele><time>2015-07-07T07:32:00Z</time></trkpt><trkpt lat="40.086944" lon="-5.912362"><ele>817.0</ele><time>2015-07-07T07:32:21Z</time></trkpt><trkpt lat="40.086839" lon="-5.912592"><ele>814.4</ele><time>2015-07-07T07:32:42Z</time></trkpt><trkpt lat="40.086624" lon="-5.913081"><ele>811.2</ele><time>2015-07-07T07:33:03Z</time></trkpt><trkpt lat="40.086376" lon="-5.913604"><ele>807.1</ele><time>2015-07-07T07:33:24Z</time></trkpt><trkpt lat="40.086151" lon="-5.913981"><ele>801.6</ele><time>2015-07-07T07:33:45Z</time></trkpt><trkpt lat="40.085987" lon="-5.914397"><ele>800.4</ele><time>2015-07-07T07:34:06Z</time></trkpt><trkpt lat="40.085705" lon="-5.914889"><ele>796.3</ele><time>2015-07-07T07:34:27Z</time></trkpt><trkpt lat="40.085452" lon="-5.915277"><ele>791.2</ele><time>2015-07-07T07:34:48Z</time></trkpt><trkpt lat="40.085345" lon="-5.915571"><ele>790.5</ele><time>2015-07-07T07:35:09Z</time></trkpt><trkpt lat="40.085265" lon="-5.915902"><ele>791.3</ele><time>2015-07-07T07:35:30Z</time></trkpt><trkpt lat="40.085121" lon="-5.916048"><ele>787.2</ele><time>2015-07-07T07:35:51Z</time></trkpt><trkpt lat="40.084990" lon="-5.916260"><ele>784.2</ele><time>2015-07-07T07:36:12Z</time></trkpt><trkpt lat="40.084915" lon="-5.916561"><ele>783.9</ele><time>2015-07-07T07:36:33Z</time></trkpt><trkpt lat="40.084863" lon="-5.916846"><ele>782.9</ele><time>2015-07-07T07:36:54Z</time></trkpt><trkpt lat="40.084846" lon="-5.917127"><ele>782.7</ele><time>2015-07-07T07:37:15Z</time></trkpt><trkpt lat="40.084810" lon="-5.917319"><ele>781.4</ele><time>2015-07-07T07:37:36Z</time></trkpt><trkpt lat="40.084747" lon="-5.917680"><ele>778.7</ele><time>2015-07-07T07:37:57Z</time></trkpt><trkpt lat="40.084681" lon="-5.917959"><ele>775.4</ele><time>2015-07-07T07:38:18Z</time></trkpt><trkpt lat="40.084679" lon="-5.918252"><ele>774.8</ele><time>2015-07-07T07:38:39Z</time></trkpt><trkpt lat="40.084681" lon="-5.918498"><ele>775.3</ele><time>2015-07-07T07:39:00Z</time></trkpt><trkpt lat="40.084677" lon="-5.918685"><ele>775.8</ele><time>2015-07-07T07:39:21Z</time></trkpt><trkpt lat="40.084590" lon="-5.918916"><ele>773.0</ele><time>2015-07-07T07:39:42Z</time></trkpt><trkpt lat="40.084548" lon="-5.919126"><ele>771.9</ele><time>2015-07-07T07:40:03Z</time></trkpt><trkpt lat="40.084528" lon="-5.919400"><ele>771.6</ele><time>2015-07-07T07:40:24Z</time></trkpt><trkpt lat="40.084545" lon="-5.919624"><ele>772.7</ele><time>2015-07-07T07:40:45Z</time></trkpt><trkpt lat="40.084516" lon="-5.920039"><ele>772.1</ele><time>2015-07-07T07:41:06Z</time></trkpt><trkpt lat="40.084475" lon="-5.920266"><ele>771.2</ele><time>2015-07-07T07:41:27Z</time></trkpt><trkpt lat="40.084483" lon="-5.920454"><ele>772.8</ele><time>2015-07-07T07:41:48Z</time></trkpt><trkpt lat="40.084507" lon="-5.920607"><ele>775.0</ele><time>2015-07-07T07:42:09Z</time></trkpt><trkpt lat="40.084526" lon="-5.920725"><ele>776.8</ele><time>2015-07-07T07:42:30Z</time></trkpt><trkpt lat="40.084495" lon="-5.920888"><ele>776.4</ele><time>2015-07-07T07:42:51Z</time></trkpt><trkpt lat="40.084393" lon="-5.921019"><ele>772.8</ele><time>2015-07-07T07:43:12Z</time></trkpt><trkpt lat="40.084327" lon="-5.921098"><ele>770.4</ele><time>2015-07-07T07:43:33Z</time></trkpt><trkpt lat="40.084247" lon="-5.921259"><ele>768.7</ele><time>2015-07-07T07:43:54Z</time></trkpt><trkpt lat="40.084180" lon="-5.921420"><ele>767.8</ele><time>2015-07-07T07:44:15Z</time></trkpt><trkpt lat="40.084097" lon="-5.921645"><ele>767.7</ele><time>2015-07-07T07:44:36Z</time></trkpt><trkpt lat="40.084010" lon="-5.921911"><ele>768.3</ele><time>2015-07-07T07:44:57Z</time></trkpt><trkpt lat="40.083915" lon="-5.922077"><ele>767.3</ele><time>2015-07-07T07:45:18Z</time></trkpt><trkpt lat="40.083836" lon="-5.922191"><ele>766.1</ele><time>2015-07-07T07:45:39Z</time></trkpt><trkpt lat="40.083735" lon="-5.922269"><ele>763.6</ele><time>2015-07-07T07:46:00Z</time></trkpt><trkpt lat="40.083663" lon="-5.922424"><ele>763.8</ele><time>2015-07-07T07:46:21Z</time></trkpt><trkpt lat="40.083662" lon="-5.922658"><ele>766.7</ele><time>2015-07-07T07:46:42Z</time></trkpt><trkpt lat="40.083636" lon="-5.922816"><ele>767.3</ele><time>2015-07-07T07:47:03Z</time></trkpt><trkpt lat="40.083510" lon="-5.922963"><ele>764.0</ele><time>2015-07-07T07:47:24Z</time></trkpt><trkpt lat="40.083360" lon="-5.923015"><ele>758.9</ele><time>2015-07-07T07:47:45Z</time></trkpt><trkpt lat="40.083172" lon="-5.922966"><ele>751.8</ele><time>2015-07-07T07:48:06Z</time></trkpt><trkpt lat="40.083060" lon="-5.922955"><ele>747.7</ele><time>2015-07-07T07:48:27Z</time></trkpt><trkpt lat="40.082968" lon="-5.923051"><ele>745.3</ele><time>2015-07-07T07:48:48Z</time></trkpt><trkpt lat="40.082804" lon="-5.923302"><ele>741.7</ele><time>2015-07-07T07:49:09Z</time></trkpt><trkpt lat="40.082731" lon="-5.923498"><ele>740.8</ele><time>2015-07-07T07:49:30Z</time></trkpt><trkpt lat="40.082614" lon="-5.923845"><ele>738.9</ele><time>2015-07-07T07:49:51Z</time></trkpt><trkpt lat="40.082517" lon="-5.924116"><ele>736.5</ele><time>2015-07-07T07:50:12Z</time></trkpt><trkpt lat="40.082441" lon="-5.924271"><ele>734.5</ele><time>2015-07-07T07:50:33Z</time></trkpt><trkpt lat="40.082341" lon="-5.924490"><ele>731.9</ele><time>2015-07-07T07:50:54Z</time></trkpt><trkpt lat="40.082291" lon="-5.924687"><ele>730.9</ele><time>2015-07-07T07:51:15Z</time></trkpt><trkpt lat="40.082259" lon="-5.924897"><ele>730.5</ele><time>2015-07-07T07:51:36Z</time></trkpt><trkpt lat="40.082142" lon="-5.925255"><ele>725.8</ele><time>2015-07-07T07:51:57Z</time></trkpt><trkpt lat="40.082092" lon="-5.925423"><ele>723.6</ele><time>2015-07-07T07:52:18Z</time></trkpt><trkpt lat="40.082093" lon="-5.925746"><ele>723.9</ele><time>2015-07-07T07:52:39Z</time></trkpt><trkpt lat="40.082107" lon="-5.926110"><ele>723.7</ele><time>2015-07-07T07:53:00Z</time></trkpt><trkpt lat="40.082125" lon="-5.926445"><ele>723.4</ele><time>2015-07-07T07:53:21Z</time></trkpt><trkpt lat="40.082042" lon="-5.926705"><ele>719.4</ele><time>2015-07-07T07:53:42Z</time></trkpt><trkpt lat="40.081955" lon="-5.927100"><ele>716.3</ele><time>2015-07-07T07:54:03Z</time></trkpt><trkpt lat="40.081833" lon="-5.927482"><ele>711.4</ele><time>2015-07-07T07:54:24Z</time></trkpt><trkpt lat="40.081748" lon="-5.927830"><ele>706.5</ele><time>2015-07-07T07:54:45Z</time></trkpt><trkpt lat="40.081736" lon="-5.928134"><ele>705.0</ele><time>2015-07-07T07:55:06Z</time></trkpt><trkpt lat="40.081711" lon="-5.928385"><ele>703.0</ele><time>2015-07-07T07:55:27Z</time></trkpt><trkpt lat="40.081686" lon="-5.928496"><ele>701.5</ele><time>2015-07-07T07:55:48Z</time></trkpt><trkpt lat="40.081629" lon="-5.928434"><ele>699.1</ele><time>2015-07-07T07:56:09Z</time></trkpt><trkpt lat="40.081583" lon="-5.928128"><ele>698.1</ele><time>2015-07-07T07:56:30Z</time></trkpt><trkpt lat="40.081511" lon="-5.927937"><ele>695.7</ele><time>2015-07-07T07:56:51Z</time></trkpt><trkpt lat="40.081410" lon="-5.927657"><ele>692.5</ele><time>2015-07-07T07:57:12Z</time></trkpt><trkpt lat="40.081332" lon="-5.927366"><ele>690.1</ele><time>2015-07-07T07:57:33Z</time></trkpt><trkpt lat="40.081292" lon="-5.927171"><ele>688.8</ele><time>2015-07-07T07:57:54Z</time></trkpt><trkpt lat="40.081229" lon="-5.926987"><ele>686.6</ele><time>2015-07-07T07:58:15Z</time></trkpt><trkpt lat="40.081148" lon="-5.926796"><ele>683.8</ele><time>2015-07-07T07:58:36Z</time></trkpt><trkpt lat="40.081096" lon="-5.926524"><ele>682.1</ele><time>2015-07-07T07:58:57Z</time></trkpt><trkpt lat="40.081031" lon="-5.926263"><ele>679.7</ele><time>2015-07-07T07:59:18Z</time></trkpt><trkpt lat="40.080944" lon="-5.926148"><ele>676.3</ele><time>2015-07-07T07:59:39Z</time></trkpt><trkpt lat="40.080944" lon="-5.925954"><ele>676.4</ele><time>2015-07-07T08:00:00Z</time></trkpt><trkpt lat="40.080901" lon="-5.925712"><ele>674.7</ele><time>2015-07-07T08:00:21Z</time></trkpt><trkpt lat="40.080800" lon="-5.925432"><ele>671.1</ele><time>2015-07-07T08:00:42Z</time></trkpt><trkpt lat="40.080720" lon="-5.925194"><ele>669.1</ele><time>2015-07-07T08:01:03Z</time></trkpt><trkpt lat="40.080576" lon="-5.924830"><ele>665.9</ele><time>2015-07-07T08:01:24Z</time></trkpt><trkpt lat="40.080417" lon="-5.924525"><ele>662.1</ele><time>2015-07-07T08:01:45Z</time></trkpt><trkpt lat="40.080333" lon="-5.924298"><ele>659.9</ele><time>2015-07-07T08:02:06Z</time></trkpt><trkpt lat="40.080276" lon="-5.924032"><ele>658.0</ele><time>2015-07-07T08:02:27Z</time></trkpt><trkpt lat="40.080243" lon="-5.923755"><ele>656.4</ele><time>2015-07-07T08:02:48Z</time></trkpt><trkpt lat="40.080220" lon="-5.923578"><ele>655.2</ele><time>2015-07-07T08:03:09Z</time></trkpt><trkpt lat="40.080226" lon="-5.923367"><ele>654.9</ele><time>2015-07-07T08:03:30Z</time></trkpt><trkpt lat="40.080180" lon="-5.923225"><ele>653.0</ele><time>2015-07-07T08:03:51Z</time></trkpt><trkpt lat="40.080135" lon="-5.923205"><ele>651.5</ele><time>2015-07-07T08:04:12Z</time></trkpt><trkpt lat="40.080060" lon="-5.923343"><ele>649.1</ele><time>2015-07-07T08:04:33Z</time></trkpt><trkpt lat="40.080018" lon="-5.923370"><ele>647.8</ele><time>2015-07-07T08:04:54Z</time></trkpt><trkpt lat="40.079953" lon="-5.923449"><ele>646.1</ele><time>2015-07-07T08:05:15Z</time></trkpt><trkpt lat="40.079872" lon="-5.923458"><ele>643.8</ele><time>2015-07-07T08:05:36Z</time></trkpt><trkpt lat="40.079743" lon="-5.923411"><ele>640.1</ele><time>2015-07-07T08:05:57Z</time></trkpt><trkpt lat="40.079683" lon="-5.923473"><ele>638.6</ele><time>2015-07-07T08:06:18Z</time></trkpt><trkpt lat="40.079657" lon="-5.923589"><ele>638.1</ele><time>2015-07-07T08:06:39Z</time></trkpt><trkpt lat="40.079618" lon="-5.923887"><ele>637.5</ele><time>2015-07-07T08:07:00Z</time></trkpt><trkpt lat="40.079617" lon="-5.924115"><ele>637.9</ele><time>2015-07-07T08:07:21Z</time></trkpt><trkpt lat="40.079578" lon="-5.924231"><ele>636.9</ele><time>2015-07-07T08:07:42Z</time></trkpt><trkpt lat="40.079509" lon="-5.924281"><ele>634.9</ele><time>2015-07-07T08:08:03Z</time></trkpt><trkpt lat="40.079419" lon="-5.924288"><ele>632.1</ele><time>2015-07-07T08:08:24Z</time></trkpt><trkpt lat="40.079326" lon="-5.924197"><ele>629.0</ele><time>2015-07-07T08:08:45Z</time></trkpt><trkpt lat="40.079253" lon="-5.924064"><ele>626.7</ele><time>2015-07-07T08:09:06Z</time></trkpt><trkpt lat="40.079163" lon="-5.923896"><ele>623.9</ele><time>2015-07-07T08:09:27Z</time></trkpt><trkpt lat="40.079072" lon="-5.923769"><ele>621.8</ele><time>2015-07-07T08:09:48Z</time></trkpt><trkpt lat="40.079084" lon="-5.923629"><ele>622.1</ele><time>2015-07-07T08:10:09Z</time></trkpt><trkpt lat="40.079105" lon="-5.923495"><ele>622.6</ele><time>2015-07-07T08:10:30Z</time></trkpt><trkpt lat="40.079094" lon="-5.923254"><ele>622.4</ele><time>2015-07-07T08:10:51Z</time></trkpt><trkpt lat="40.079069" lon="-5.922960"><ele>621.8</ele><time>2015-07-07T08:11:12Z</time></trkpt><trkpt lat="40.079009" lon="-5.922664"><ele>620.6</ele><time>2015-07-07T08:11:33Z</time></trkpt><trkpt lat="40.078925" lon="-5.922444"><ele>619.0</ele><time>2015-07-07T08:11:54Z</time></trkpt><trkpt lat="40.078836" lon="-5.922235"><ele>617.9</ele><time>2015-07-07T08:12:15Z</time></trkpt><trkpt lat="40.078795" lon="-5.922040"><ele>617.9</ele><time>2015-07-07T08:12:36Z</time></trkpt><trkpt lat="40.078713" lon="-5.921919"><ele>616.7</ele><time>2015-07-07T08:12:57Z</time></trkpt><trkpt lat="40.078582" lon="-5.921761"><ele>614.7</ele><time>2015-07-07T08:13:18Z</time></trkpt><trkpt lat="40.078443" lon="-5.921714"><ele>612.0</ele><time>2015-07-07T08:13:39Z</time></trkpt><trkpt lat="40.078368" lon="-5.921681"><ele>610.6</ele><time>2015-07-07T08:14:00Z</time></trkpt><trkpt lat="40.078317" lon="-5.921562"><ele>609.9</ele><time>2015-07-07T08:14:21Z</time></trkpt><trkpt lat="40.078275" lon="-5.921414"><ele>609.4</ele><time>2015-07-07T08:14:42Z</time></trkpt><trkpt lat="40.078291" lon="-5.921145"><ele>609.9</ele><time>2015-07-07T08:15:03Z</time></trkpt><trkpt lat="40.078299" lon="-5.920840"><ele>610.4</ele><time>2015-07-07T08:15:24Z</time></trkpt><trkpt lat="40.078274" lon="-5.920563"><ele>610.1</ele><time>2015-07-07T08:15:45Z</time></trkpt><trkpt lat="40.078221" lon="-5.920180"><ele>609.6</ele><time>2015-07-07T08:16:06Z</time></trkpt><trkpt lat="40.078266" lon="-5.919819"><ele>610.5</ele><time>2015-07-07T08:16:27Z</time></trkpt><trkpt lat="40.078393" lon="-5.919414"><ele>612.5</ele><time>2015-07-07T08:16:48Z</time></trkpt><trkpt lat="40.078529" lon="-5.919027"><ele>613.5</ele><time>2015-07-07T08:17:09Z</time></trkpt><trkpt lat="40.078671" lon="-5.918780"><ele>614.2</ele><time>2015-07-07T08:17:30Z</time></trkpt><trkpt lat="40.078804" lon="-5.918481"><ele>614.7</ele><time>2015-07-07T08:17:51Z</time></trkpt><trkpt lat="40.078850" lon="-5.918261"><ele>614.5</ele><time>2015-07-07T08:18:12Z</time></trkpt><trkpt lat="40.078832" lon="-5.918084"><ele>613.4</ele><time>2015-07-07T08:18:33Z</time></trkpt><trkpt lat="40.078614" lon="-5.917635"><ele>608.4</ele><time>2015-07-07T08:18:54Z</time></trkpt><trkpt lat="40.078495" lon="-5.917337"><ele>605.9</ele><time>2015-07-07T08:19:15Z</time></trkpt><trkpt lat="40.078398" lon="-5.917098"><ele>604.3</ele><time>2015-07-07T08:19:36Z</time></trkpt><trkpt lat="40.078375" lon="-5.916909"><ele>603.8</ele><time>2015-07-07T08:19:57Z</time></trkpt><trkpt lat="40.078405" lon="-5.916811"><ele>604.0</ele><time>2015-07-07T08:20:18Z</time></trkpt><trkpt lat="40.078529" lon="-5.916717"><ele>605.2</ele><time>2015-07-07T08:20:39Z</time></trkpt><trkpt lat="40.078725" lon="-5.916637"><ele>607.3</ele><time>2015-07-07T08:21:00Z</time></trkpt><trkpt lat="40.078957" lon="-5.916547"><ele>610.1</ele><time>2015-07-07T08:21:21Z</time></trkpt><trkpt lat="40.079068" lon="-5.916423"><ele>611.6</ele><time>2015-07-07T08:21:42Z</time></trkpt><trkpt lat="40.079241" lon="-5.916155"><ele>614.1</ele><time>2015-07-07T08:22:03Z</time></trkpt><trkpt lat="40.079331" lon="-5.915989"><ele>615.4</ele><time>2015-07-07T08:22:24Z</time></trkpt><trkpt lat="40.079387" lon="-5.915903"><ele>616.0</ele><time>2015-07-07T08:22:45Z</time></trkpt><trkpt lat="40.079560" lon="-5.915846"><ele>617.8</ele><time>2015-07-07T08:23:06Z</time></trkpt><trkpt lat="40.079698" lon="-5.915729"><ele>619.5</ele><time>2015-07-07T08:23:27Z</time></trkpt><trkpt lat="40.080052" lon="-5.915427"><ele>624.4</ele><time>2015-07-07T08:23:48Z</time></trkpt><trkpt lat="40.080175" lon="-5.915368"><ele>626.9</ele><time>2015-07-07T08:24:09Z</time></trkpt><trkpt lat="40.080414" lon="-5.915367"><ele>631.2</ele><time>2015-07-07T08:24:30Z</time></trkpt><trkpt lat="40.080618" lon="-5.915305"><ele>634.9</ele><time>2015-07-07T08:24:51Z</time></trkpt><trkpt lat="40.080697" lon="-5.915220"><ele>636.2</ele><time>2015-07-07T08:25:12Z</time></trkpt><trkpt lat="40.080797" lon="-5.914990"><ele>637.4</ele><time>2015-07-07T08:25:33Z</time></trkpt><trkpt lat="40.080866" lon="-5.914758"><ele>638.1</ele><time>2015-07-07T08:25:54Z</time></trkpt><trkpt lat="40.080907" lon="-5.914584"><ele>638.4</ele><time>2015-07-07T08:26:15Z</time></trkpt><trkpt lat="40.080984" lon="-5.914388"><ele>639.3</ele><time>2015-07-07T08:26:36Z</time></trkpt><trkpt lat="40.081076" lon="-5.914134"><ele>640.3</ele><time>2015-07-07T08:26:57Z</time></trkpt><trkpt lat="40.081122" lon="-5.913913"><ele>640.3</ele><time>2015-07-07T08:27:18Z</time></trkpt><trkpt lat="40.081146" lon="-5.913674"><ele>639.9</ele><time>2015-07-07T08:27:39Z</time></trkpt><trkpt lat="40.081173" lon="-5.913470"><ele>639.6</ele><time>2015-07-07T08:28:00Z</time></trkpt><trkpt lat="40.081242" lon="-5.913250"><ele>640.3</ele><time>2015-07-07T08:28:21Z</time></trkpt><trkpt lat="40.081283" lon="-5.913058"><ele>640.7</ele><time>2015-07-07T08:28:42Z</time></trkpt><trkpt lat="40.081372" lon="-5.912904"><ele>642.0</ele><time>2015-07-07T08:29:03Z</time></trkpt><trkpt lat="40.081531" lon="-5.912670"><ele>644.2</ele><time>2015-07-07T08:29:24Z</time></trkpt><trkpt lat="40.081687" lon="-5.912407"><ele>646.2</ele><time>2015-07-07T08:29:45Z</time></trkpt><trkpt lat="40.081817" lon="-5.912249"><ele>647.9</ele><time>2015-07-07T08:30:06Z</time></trkpt><trkpt lat="40.081941" lon="-5.912125"><ele>649.4</ele><time>2015-07-07T08:30:27Z</time></trkpt><trkpt lat="40.081984" lon="-5.912021"><ele>649.7</ele><time>2015-07-07T08:30:48Z</time></trkpt><trkpt lat="40.081969" lon="-5.911921"><ele>649.3</ele><time>2015-07-07T08:31:09Z</time></trkpt><trkpt lat="40.081882" lon="-5.911800"><ele>647.9</ele><time>2015-07-07T08:31:30Z</time></trkpt><trkpt lat="40.081760" lon="-5.911636"><ele>646.1</ele><time>2015-07-07T08:31:51Z</time></trkpt><trkpt lat="40.081670" lon="-5.911462"><ele>644.8</ele><time>2015-07-07T08:32:12Z</time></trkpt><trkpt lat="40.081641" lon="-5.911344"><ele>644.3</ele><time>2015-07-07T08:32:33Z</time></trkpt><trkpt lat="40.081629" lon="-5.911115"><ele>643.9</ele><time>2015-07-07T08:32:54Z</time></trkpt><trkpt lat="40.081580" lon="-5.910896"><ele>643.0</ele><time>2015-07-07T08:33:15Z</time></trkpt><trkpt lat="40.081503" lon="-5.910746"><ele>642.4</ele><time>2015-07-07T08:33:36Z</time></trkpt><trkpt lat="40.081417" lon="-5.910578"><ele>642.0</ele><time>2015-07-07T08:33:57Z</time></trkpt><trkpt lat="40.081331" lon="-5.910434"><ele>641.3</ele><time>2015-07-07T08:34:18Z</time></trkpt><trkpt lat="40.081194" lon="-5.910328"><ele>639.7</ele><time>2015-07-07T08:34:39Z</time></trkpt><trkpt lat="40.081097" lon="-5.910224"><ele>638.6</ele><time>2015-07-07T08:35:00Z</time></trkpt><trkpt lat="40.081056" lon="-5.910076"><ele>638.3</ele><time>2015-07-07T08:35:21Z</time></trkpt><trkpt lat="40.080969" lon="-5.909949"><ele>637.0</ele><time>2015-07-07T08:35:42Z</time></trkpt><trkpt lat="40.080891" lon="-5.909817"><ele>635.6</ele><time>2015-07-07T08:36:03Z</time></trkpt><trkpt lat="40.080786" lon="-5.909730"><ele>634.0</ele><time>2015-07-07T08:36:24Z</time></trkpt><trkpt lat="40.080696" lon="-5.909539"><ele>632.3</ele><time>2015-07-07T08:36:45Z</time></trkpt><trkpt lat="40.080613" lon="-5.909418"><ele>630.7</ele><time>2015-07-07T08:37:06Z</time></trkpt><trkpt lat="40.080597" lon="-5.909154"><ele>629.7</ele><time>2015-07-07T08:37:27Z</time></trkpt><trkpt lat="40.080596" lon="-5.908866"><ele>627.7</ele><time>2015-07-07T08:37:48Z</time></trkpt><trkpt lat="40.080605" lon="-5.908661"><ele>626.5</ele><time>2015-07-07T08:38:09Z</time></trkpt><trkpt lat="40.080776" lon="-5.908493"><ele>627.6</ele><time>2015-07-07T08:38:30Z</time></trkpt><trkpt lat="40.080877" lon="-5.908251"><ele>627.4</ele><time>2015-07-07T08:38:51Z</time></trkpt><trkpt lat="40.080884" lon="-5.908140"><ele>626.9</ele><time>2015-07-07T08:39:12Z</time></trkpt><trkpt lat="40.080821" lon="-5.907979"><ele>624.7</ele><time>2015-07-07T08:39:33Z</time></trkpt><trkpt lat="40.080778" lon="-5.907701"><ele>622.7</ele><time>2015-07-07T08:39:54Z</time></trkpt><trkpt lat="40.080806" lon="-5.907468"><ele>621.9</ele><time>2015-07-07T08:40:15Z</time></trkpt><trkpt lat="40.080797" lon="-5.907298"><ele>622.4</ele><time>2015-07-07T08:40:36Z</time></trkpt><trkpt lat="40.080743" lon="-5.907102"><ele>622.4</ele><time>2015-07-07T08:40:57Z</time></trkpt><trkpt lat="40.080692" lon="-5.906824"><ele>622.6</ele><time>2015-07-07T08:41:18Z</time></trkpt><trkpt lat="40.080621" lon="-5.906616"><ele>622.0</ele><time>2015-07-07T08:41:39Z</time></trkpt><trkpt lat="40.080601" lon="-5.906310"><ele>622.3</ele><time>2015-07-07T08:42:00Z</time></trkpt><trkpt lat="40.080614" lon="-5.905971"><ele>623.1</ele><time>2015-07-07T08:42:21Z</time></trkpt><trkpt lat="40.080614" lon="-5.905818"><ele>623.3</ele><time>2015-07-07T08:42:42Z</time></trkpt><trkpt lat="40.080514" lon="-5.905650"><ele>621.5</ele><time>2015-07-07T08:43:03Z</time></trkpt><trkpt lat="40.080370" lon="-5.905491"><ele>619.3</ele><time>2015-07-07T08:43:24Z</time></trkpt><trkpt lat="40.080126" lon="-5.905334"><ele>616.0</ele><time>2015-07-07T08:43:45Z</time></trkpt><trkpt lat="40.079892" lon="-5.905137"><ele>613.7</ele><time>2015-07-07T08:44:06Z</time></trkpt><trkpt lat="40.079671" lon="-5.904952"><ele>612.1</ele><time>2015-07-07T08:44:27Z</time></trkpt><trkpt lat="40.079491" lon="-5.904786"><ele>610.9</ele><time>2015-07-07T08:44:48Z</time></trkpt><trkpt lat="40.079351" lon="-5.904621"><ele>610.0</ele><time>2015-07-07T08:45:09Z</time></trkpt><trkpt lat="40.079246" lon="-5.904500"><ele>609.1</ele><time>2015-07-07T08:45:30Z</time></trkpt><trkpt lat="40.079099" lon="-5.904441"><ele>607.6</ele><time>2015-07-07T08:45:51Z</time></trkpt><trkpt lat="40.078960" lon="-5.904423"><ele>606.1</ele><time>2015-07-07T08:46:12Z</time></trkpt><trkpt lat="40.078900" lon="-5.904479"><ele>605.3</ele><time>2015-07-07T08:46:33Z</time></trkpt><trkpt lat="40.078830" lon="-5.904388"><ele>604.7</ele><time>2015-07-07T08:46:54Z</time></trkpt><trkpt lat="40.078728" lon="-5.904313"><ele>603.8</ele><time>2015-07-07T08:47:15Z</time></trkpt><trkpt lat="40.078644" lon="-5.904275"><ele>603.0</ele><time>2015-07-07T08:47:36Z</time></trkpt><trkpt lat="40.078582" lon="-5.904032"><ele>604.2</ele><time>2015-07-07T08:47:57Z</time></trkpt><trkpt lat="40.078553" lon="-5.903767"><ele>606.8</ele><time>2015-07-07T08:48:18Z</time></trkpt><trkpt lat="40.078498" lon="-5.903612"><ele>608.0</ele><time>2015-07-07T08:48:39Z</time></trkpt><trkpt lat="40.078366" lon="-5.903506"><ele>608.2</ele><time>2015-07-07T08:49:00Z</time></trkpt><trkpt lat="40.078123" lon="-5.903297"><ele>609.0</ele><time>2015-07-07T08:49:21Z</time></trkpt><trkpt lat="40.077957" lon="-5.903096"><ele>610.3</ele><time>2015-07-07T08:49:42Z</time></trkpt><trkpt lat="40.077772" lon="-5.902913"><ele>610.8</ele><time>2015-07-07T08:50:03Z</time></trkpt><trkpt lat="40.077449" lon="-5.902694"><ele>609.7</ele><time>2015-07-07T08:50:24Z</time></trkpt><trkpt lat="40.077224" lon="-5.902520"><ele>609.2</ele><time>2015-07-07T08:50:45Z</time></trkpt><trkpt lat="40.076845" lon="-5.902193"><ele>609.0</ele><time>2015-07-07T08:51:06Z</time></trkpt><trkpt lat="40.076678" lon="-5.901998"><ele>609.0</ele><time>2015-07-07T08:51:27Z</time></trkpt><trkpt lat="40.076531" lon="-5.901752"><ele>609.6</ele><time>2015-07-07T08:51:48Z</time></trkpt><trkpt lat="40.076487" lon="-5.901562"><ele>610.6</ele><time>2015-07-07T08:52:09Z</time></trkpt><trkpt lat="40.076423" lon="-5.901225"><ele>612.0</ele><time>2015-07-07T08:52:30Z</time></trkpt><trkpt lat="40.076331" lon="-5.900782"><ele>613.3</ele><time>2015-07-07T08:52:51Z</time></trkpt><trkpt lat="40.076240" lon="-5.900244"><ele>615.2</ele><time>2015-07-07T08:53:12Z</time></trkpt><trkpt lat="40.076177" lon="-5.899919"><ele>616.2</ele><time>2015-07-07T08:53:33Z</time></trkpt><trkpt lat="40.076062" lon="-5.899651"><ele>616.6</ele><time>2015-07-07T08:53:54Z</time></trkpt><trkpt lat="40.075958" lon="-5.899300"><ele>618.5</ele><time>2015-07-07T08:54:15Z</time></trkpt><trkpt lat="40.075906" lon="-5.899046"><ele>620.4</ele><time>2015-07-07T08:54:36Z</time></trkpt><trkpt lat="40.075905" lon="-5.898723"><ele>623.8</ele><time>2015-07-07T08:54:57Z</time></trkpt><trkpt lat="40.075871" lon="-5.898452"><ele>626.2</ele><time>2015-07-07T08:55:18Z</time></trkpt><trkpt lat="40.075819" lon="-5.898180"><ele>627.9</ele><time>2015-07-07T08:55:39Z</time></trkpt><trkpt lat="40.075793" lon="-5.897962"><ele>629.0</ele><time>2015-07-07T08:56:00Z</time></trkpt><trkpt lat="40.075854" lon="-5.897672"><ele>631.3</ele><time>2015-07-07T08:56:21Z</time></trkpt><trkpt lat="40.075897" lon="-5.897427"><ele>633.3</ele><time>2015-07-07T08:56:42Z</time></trkpt><trkpt lat="40.075878" lon="-5.897286"><ele>633.3</ele><time>2015-07-07T08:57:03Z</time></trkpt><trkpt lat="40.075767" lon="-5.897017"><ele>632.5</ele><time>2015-07-07T08:57:24Z</time></trkpt><trkpt lat="40.075727" lon="-5.896822"><ele>632.4</ele><time>2015-07-07T08:57:45Z</time></trkpt><trkpt lat="40.075683" lon="-5.896598"><ele>632.2</ele><time>2015-07-07T08:58:06Z</time></trkpt><trkpt lat="40.075619" lon="-5.896278"><ele>631.3</ele><time>2015-07-07T08:58:27Z</time></trkpt><trkpt lat="40.075553" lon="-5.896029"><ele>630.1</ele><time>2015-07-07T08:58:48Z</time></trkpt><trkpt lat="40.075508" lon="-5.895846"><ele>629.2</ele><time>2015-07-07T08:59:09Z</time></trkpt><trkpt lat="40.075521" lon="-5.895682"><ele>629.1</ele><time>2015-07-07T08:59:30Z</time></trkpt><trkpt lat="40.075533" lon="-5.895413"><ele>628.9</ele><time>2015-07-07T08:59:51Z</time></trkpt><trkpt lat="40.075583" lon="-5.895016"><ele>629.3</ele><time>2015-07-07T09:00:12Z</time></trkpt><trkpt lat="40.075602" lon="-5.894794"><ele>630.2</ele><time>2015-07-07T09:00:33Z</time></trkpt><trkpt lat="40.075595" lon="-5.894360"><ele>631.1</ele><time>2015-07-07T09:00:54Z</time></trkpt><trkpt lat="40.075587" lon="-5.893961"><ele>631.1</ele><time>2015-07-07T09:01:15Z</time></trkpt><trkpt lat="40.075594" lon="-5.893663"><ele>630.8</ele><time>2015-07-07T09:01:36Z</time></trkpt><trkpt lat="40.075709" lon="-5.893398"><ele>633.1</ele><time>2015-07-07T09:01:57Z</time></trkpt><trkpt lat="40.075855" lon="-5.893152"><ele>634.4</ele><time>2015-07-07T09:02:18Z</time></trkpt><trkpt lat="40.076044" lon="-5.892785"><ele>635.1</ele><time>2015-07-07T09:02:39Z</time></trkpt><trkpt lat="40.076159" lon="-5.892520"><ele>634.8</ele><time>2015-07-07T09:03:00Z</time></trkpt><trkpt lat="40.076213" lon="-5.892346"><ele>635.5</ele><time>2015-07-07T09:03:21Z</time></trkpt><trkpt lat="40.076254" lon="-5.892155"><ele>635.9</ele><time>2015-07-07T09:03:42Z</time></trkpt><trkpt lat="40.076368" lon="-5.891901"><ele>637.6</ele><time>2015-07-07T09:04:03Z</time></trkpt><trkpt lat="40.076492" lon="-5.891649"><ele>639.0</ele><time>2015-07-07T09:04:24Z</time></trkpt><trkpt lat="40.076604" lon="-5.891454"><ele>638.8</ele><time>2015-07-07T09:04:45Z</time></trkpt><trkpt lat="40.076717" lon="-5.891295"><ele>638.9</ele><time>2015-07-07T09:05:06Z</time></trkpt><trkpt lat="40.076853" lon="-5.891072"><ele>638.8</ele><time>2015-07-07T09:05:27Z</time></trkpt><trkpt lat="40.076972" lon="-5.890807"><ele>636.8</ele><time>2015-07-07T09:05:48Z</time></trkpt><trkpt lat="40.077163" lon="-5.890540"><ele>636.3</ele><time>2015-07-07T09:06:09Z</time></trkpt><trkpt lat="40.077371" lon="-5.890349"><ele>636.6</ele><time>2015-07-07T09:06:30Z</time></trkpt><trkpt lat="40.077470" lon="-5.890177"><ele>635.0</ele><time>2015-07-07T09:06:51Z</time></trkpt><trkpt lat="40.077578" lon="-5.890000"><ele>633.3</ele><time>2015-07-07T09:07:12Z</time></trkpt><trkpt lat="40.077778" lon="-5.889915"><ele>635.7</ele><time>2015-07-07T09:07:33Z</time></trkpt><trkpt lat="40.077917" lon="-5.889763"><ele>636.2</ele><time>2015-07-07T09:07:54Z</time></trkpt><trkpt lat="40.077997" lon="-5.889614"><ele>635.5</ele><time>2015-07-07T09:08:15Z</time></trkpt><trkpt lat="40.078034" lon="-5.889386"><ele>633.2</ele><time>2015-07-07T09:08:36Z</time></trkpt><trkpt lat="40.078068" lon="-5.889294"><ele>632.5</ele><time>2015-07-07T09:08:57Z</time></trkpt><trkpt lat="40.078248" lon="-5.889108"><ele>633.0</ele><time>2015-07-07T09:09:18Z</time></trkpt><trkpt lat="40.078410" lon="-5.888963"><ele>635.4</ele><time>2015-07-07T09:09:39Z</time></trkpt><trkpt lat="40.078499" lon="-5.888802"><ele>636.4</ele><time>2015-07-07T09:10:00Z</time></trkpt><trkpt lat="40.078701" lon="-5.888652"><ele>638.6</ele><time>2015-07-07T09:10:21Z</time></trkpt><trkpt lat="40.078926" lon="-5.888474"><ele>639.2</ele><time>2015-07-07T09:10:42Z</time></trkpt><trkpt lat="40.079157" lon="-5.888255"><ele>638.8</ele><time>2015-07-07T09:11:03Z</time></trkpt><trkpt lat="40.079366" lon="-5.888006"><ele>642.8</ele><time>2015-07-07T09:11:24Z</time></trkpt><trkpt lat="40.079493" lon="-5.887789"><ele>643.6</ele><time>2015-07-07T09:11:45Z</time></trkpt><trkpt lat="40.079635" lon="-5.887519"><ele>642.9</ele><time>2015-07-07T09:12:06Z</time></trkpt><trkpt lat="40.079782" lon="-5.887232"><ele>643.6</ele><time>2015-07-07T09:12:27Z</time></trkpt><trkpt lat="40.079904" lon="-5.887009"><ele>642.6</ele><time>2015-07-07T09:12:48Z</time></trkpt><trkpt lat="40.080061" lon="-5.886846"><ele>641.8</ele><time>2015-07-07T09:13:09Z</time></trkpt><trkpt lat="40.080189" lon="-5.886786"><ele>643.2</ele><time>2015-07-07T09:13:30Z</time></trkpt><trkpt lat="40.080291" lon="-5.886668"><ele>643.2</ele><time>2015-07-07T09:13:51Z</time></trkpt><trkpt lat="40.080308" lon="-5.886510"><ele>644.5</ele><time>2015-07-07T09:14:12Z</time></trkpt><trkpt lat="40.080226" lon="-5.886372"><ele>644.4</ele><time>2015-07-07T09:14:33Z</time></trkpt><trkpt lat="40.080123" lon="-5.886350"><ele>643.4</ele><time>2015-07-07T09:14:54Z</time></trkpt><trkpt lat="40.080117" lon="-5.886323"><ele>643.6</ele><time>2015-07-07T09:15:15Z</time></trkpt><trkpt lat="40.080112" lon="-5.886256"><ele>644.1</ele><time>2015-07-07T09:15:36Z</time></trkpt><trkpt lat="40.080117" lon="-5.886159"><ele>645.0</ele><time>2015-07-07T09:15:57Z</time></trkpt><trkpt lat="40.080144" lon="-5.886140"><ele>645.4</ele><time>2015-07-07T09:16:18Z</time></trkpt><trkpt lat="40.080208" lon="-5.886201"><ele>645.5</ele><time>2015-07-07T09:16:39Z</time></trkpt><trkpt lat="40.080291" lon="-5.886204"><ele>646.3</ele><time>2015-07-07T09:17:00Z</time></trkpt><trkpt lat="40.080363" lon="-5.886125"><ele>647.4</ele><time>2015-07-07T09:17:21Z</time></trkpt><trkpt lat="40.080479" lon="-5.886075"><ele>648.7</ele><time>2015-07-07T09:17:42Z</time></trkpt><trkpt lat="40.080612" lon="-5.885989"><ele>650.1</ele><time>2015-07-07T09:18:03Z</time></trkpt><trkpt lat="40.080676" lon="-5.885951"><ele>650.7</ele><time>2015-07-07T09:18:24Z</time></trkpt><trkpt lat="40.080676" lon="-5.885951"><ele>650.7</ele><time>2015-07-07T09:18:45Z</time></trkpt><trkpt lat="40.080714" lon="-5.885853"><ele>651.2</ele><time>2015-07-07T09:19:06Z</time></trkpt><trkpt lat="40.080646" lon="-5.885800"><ele>651.5</ele><time>2015-07-07T09:19:27Z</time></trkpt><trkpt lat="40.080596" lon="-5.885737"><ele>652.3</ele><time>2015-07-07T09:19:48Z</time></trkpt><trkpt lat="40.080495" lon="-5.885703"><ele>652.2</ele><time>2015-07-07T09:20:09Z</time></trkpt><trkpt lat="40.080451" lon="-5.885666"><ele>652.6</ele><time>2015-07-07T09:20:30Z</time></trkpt><trkpt lat="40.080444" lon="-5.885601"><ele>653.6</ele><time>2015-07-07T09:20:51Z</time></trkpt><trkpt lat="40.080491" lon="-5.885509"><ele>655.6</ele><time>2015-07-07T09:21:12Z</time></trkpt><trkpt lat="40.080522" lon="-5.885443"><ele>657.0</ele><time>2015-07-07T09:21:33Z</time></trkpt><trkpt lat="40.080600" lon="-5.885496"><ele>656.8</ele><time>2015-07-07T09:21:54Z</time></trkpt><trkpt lat="40.080649" lon="-5.885516"><ele>656.9</ele><time>2015-07-07T09:22:15Z</time></trkpt><trkpt lat="40.080727" lon="-5.885461"><ele>658.6</ele><time>2015-07-07T09:22:36Z</time></trkpt><trkpt lat="40.080770" lon="-5.885416"><ele>659.9</ele><time>2015-07-07T09:22:57Z</time></trkpt><trkpt lat="40.080838" lon="-5.885418"><ele>660.5</ele><time>2015-07-07T09:23:18Z</time></trkpt><trkpt lat="40.080928" lon="-5.885402"><ele>661.8</ele><time>2015-07-07T09:23:39Z</time></trkpt><trkpt lat="40.081058" lon="-5.885349"><ele>664.5</ele><time>2015-07-07T09:24:00Z</time></trkpt><trkpt lat="40.081187" lon="-5.885313"><ele>667.0</ele><time>2015-07-07T09:24:21Z</time></trkpt><trkpt lat="40.081253" lon="-5.885281"><ele>668.6</ele><time>2015-07-07T09:24:42Z</time></trkpt><trkpt lat="40.081314" lon="-5.885219"><ele>671.1</ele><time>2015-07-07T09:25:03Z</time></trkpt><trkpt lat="40.081341" lon="-5.885208"><ele>671.8</ele><time>2015-07-07T09:25:24Z</time></trkpt><trkpt lat="40.081334" lon="-5.885135"><ele>673.7</ele><time>2015-07-07T09:25:45Z</time></trkpt><trkpt lat="40.081359" lon="-5.885112"><ele>674.7</ele><time>2015-07-07T09:26:06Z</time></trkpt><trkpt lat="40.081358" lon="-5.885056"><ele>676.2</ele><time>2015-07-07T09:26:27Z</time></trkpt><trkpt lat="40.081332" lon="-5.885014"><ele>677.0</ele><time>2015-07-07T09:26:48Z</time></trkpt><trkpt lat="40.081320" lon="-5.884958"><ele>677.7</ele><time>2015-07-07T09:27:09Z</time></trkpt><trkpt lat="40.081359" lon="-5.884933"><ele>678.7</ele><time>2015-07-07T09:27:30Z</time></trkpt><trkpt lat="40.081426" lon="-5.884951"><ele>679.6</ele><time>2015-07-07T09:27:51Z</time></trkpt><trkpt lat="40.081462" lon="-5.884941"><ele>680.4</ele><time>2015-07-07T09:28:12Z</time></trkpt><trkpt lat="40.081547" lon="-5.884874"><ele>683.1</ele><time>2015-07-07T09:28:33Z</time></trkpt><trkpt lat="40.081611" lon="-5.884850"><ele>684.8</ele><time>2015-07-07T09:28:54Z</time></trkpt><trkpt lat="40.081698" lon="-5.884801"><ele>687.2</ele><time>2015-07-07T09:29:15Z</time></trkpt><trkpt lat="40.081794" lon="-5.884749"><ele>689.6</ele><time>2015-07-07T09:29:36Z</time></trkpt><trkpt lat="40.081836" lon="-5.884695"><ele>691.4</ele><time>2015-07-07T09:29:57Z</time></trkpt><trkpt lat="40.081937" lon="-5.884676"><ele>693.4</ele><time>2015-07-07T09:30:18Z</time></trkpt><trkpt lat="40.082043" lon="-5.884672"><ele>695.1</ele><time>2015-07-07T09:30:39Z</time></trkpt><trkpt lat="40.082130" lon="-5.884714"><ele>695.2</ele><time>2015-07-07T09:31:00Z</time></trkpt><trkpt lat="40.082258" lon="-5.884713"><ele>697.1</ele><time>2015-07-07T09:31:21Z</time></trkpt><trkpt lat="40.082408" lon="-5.884693"><ele>700.0</ele><time>2015-07-07T09:31:42Z</time></trkpt><trkpt lat="40.082529" lon="-5.884693"><ele>701.2</ele><time>2015-07-07T09:32:03Z</time></trkpt><trkpt lat="40.082620" lon="-5.884673"><ele>701.1</ele><time>2015-07-07T09:32:24Z</time></trkpt><trkpt lat="40.082688" lon="-5.884629"><ele>702.1</ele><time>2015-07-07T09:32:45Z</time></trkpt><trkpt lat="40.082780" lon="-5.884562"><ele>703.7</ele><time>2015-07-07T09:33:06Z</time></trkpt><trkpt lat="40.082837" lon="-5.884465"><ele>706.7</ele><time>2015-07-07T09:33:27Z</time></trkpt><trkpt lat="40.082935" lon="-5.884393"><ele>708.3</ele><time>2015-07-07T09:33:48Z</time></trkpt><trkpt lat="40.082996" lon="-5.884302"><ele>710.9</ele><time>2015-07-07T09:34:09Z</time></trkpt><trkpt lat="40.083137" lon="-5.884164"><ele>714.2</ele><time>2015-07-07T09:34:30Z</time></trkpt><trkpt lat="40.083318" lon="-5.883931"><ele>721.1</ele><time>2015-07-07T09:34:51Z</time></trkpt><trkpt lat="40.083388" lon="-5.883855"><ele>723.3</ele><time>2015-07-07T09:35:12Z</time></trkpt><trkpt lat="40.083602" lon="-5.883747"><ele>724.7</ele><time>2015-07-07T09:35:33Z</time></trkpt><trkpt lat="40.083715" lon="-5.883634"><ele>727.6</ele><time>2015-07-07T09:35:54Z</time></trkpt><trkpt lat="40.083838" lon="-5.883505"><ele>730.9</ele><time>2015-07-07T09:36:15Z</time></trkpt><trkpt lat="40.083949" lon="-5.883383"><ele>734.0</ele><time>2015-07-07T09:36:36Z</time></trkpt><trkpt lat="40.084008" lon="-5.883295"><ele>736.5</ele><time>2015-07-07T09:36:57Z</time></trkpt><trkpt lat="40.084148" lon="-5.883166"><ele>739.8</ele><time>2015-07-07T09:37:18Z</time></trkpt><trkpt lat="40.084287" lon="-5.883031"><ele>744.1</ele><time>2015-07-07T09:37:39Z</time></trkpt><trkpt lat="40.084374" lon="-5.882941"><ele>746.9</ele><time>2015-07-07T09:38:00Z</time></trkpt><trkpt lat="40.084491" lon="-5.882873"><ele>748.6</ele><time>2015-07-07T09:38:21Z</time></trkpt><trkpt lat="40.084695" lon="-5.882729"><ele>752.4</ele><time>2015-07-07T09:38:42Z</time></trkpt><trkpt lat="40.084809" lon="-5.882669"><ele>753.6</ele><time>2015-07-07T09:39:03Z</time></trkpt><trkpt lat="40.084928" lon="-5.882580"><ele>755.8</ele><time>2015-07-07T09:39:24Z</time></trkpt><trkpt lat="40.084987" lon="-5.882498"><ele>758.2</ele><time>2015-07-07T09:39:45Z</time></trkpt><trkpt lat="40.085020" lon="-5.882429"><ele>760.1</ele><time>2015-07-07T09:40:06Z</time></trkpt><trkpt lat="40.085095" lon="-5.882294"><ele>763.8</ele><time>2015-07-07T09:40:27Z</time></trkpt><trkpt lat="40.085168" lon="-5.882189"><ele>766.6</ele><time>2015-07-07T09:40:48Z</time></trkpt><trkpt lat="40.085236" lon="-5.882054"><ele>770.6</ele><time>2015-07-07T09:41:09Z</time></trkpt><trkpt lat="40.085318" lon="-5.881952"><ele>773.5</ele><time>2015-07-07T09:41:30Z</time></trkpt><trkpt lat="40.085405" lon="-5.881900"><ele>774.6</ele><time>2015-07-07T09:41:51Z</time></trkpt><trkpt lat="40.085465" lon="-5.881826"><ele>776.8</ele><time>2015-07-07T09:42:12Z</time></trkpt><trkpt lat="40.085542" lon="-5.881809"><ele>776.8</ele><time>2015-07-07T09:42:33Z</time></trkpt><trkpt lat="40.085620" lon="-5.881754"><ele>778.2</ele><time>2015-07-07T09:42:54Z</time></trkpt><trkpt lat="40.085706" lon="-5.881745"><ele>777.9</ele><time>2015-07-07T09:43:15Z</time></trkpt><trkpt lat="40.085721" lon="-5.881682"><ele>780.2</ele><time>2015-07-07T09:43:36Z</time></trkpt><trkpt lat="40.085657" lon="-5.881635"><ele>782.2</ele><time>2015-07-07T09:43:57Z</time></trkpt></trkseg></trk></gpx>